M I D A S
Marine Information and Data Acquisition System
Tripno 662 of the Zeeleeuw from 2004-03-08 09:01:07 to 2004-03-08 14:46:37
Back to CruiseResearch ActivitiesStationsMapUnderway DataData graphs

EquipmentUnitsComment
TimeDGPSUTC
LatitudeDGPSDM.mWGS84
LongitudeDGPSDM.mWGS84
TemperatureSBE03/SBE38deg celciusITS90
ConductivitySBE21S/mITS90
SalinitySBE21 Practical Salinity Units
ChlorophylAChelsea fluorimeterg/lCalibrated in Aceton
Missing or incorrect values are displayed as -999
Sea surface data collected by the RV Zeeleeuw from 2004-03-08 09:01:07 to 2004-03-08 14:46:37
                                                                                    Next 1000 lines
Time Latitude Longitude Temperature Conductivity Salinity ChlorophylA
2004-03-08 09:01:15 51°13.858 2°55.611 12.268386 4.247613 31.358202 -0.814958
2004-03-08 09:01:20 51°13.867 2°55.605 12.230857 4.247508 31.357333 -0.848668
2004-03-08 09:01:25 51°13.876 2°55.598 12.230857 4.247508 31.357333 -0.848668
2004-03-08 09:01:29 51°13.883 2°55.593 12.264172 4.247508 31.357875 -0.848668
2004-03-08 09:01:35 51°13.894 2°55.585 12.277856 4.247402 31.357547 -0.882377
2004-03-08 09:01:39 51°13.901 2°55.58 12.289272 4.247508 31.358957 -0.882377
2004-03-08 09:01:45 51°13.912 2°55.571 12.273008 4.247402 31.35863 -0.848668
2004-03-08 09:01:49 51°13.92 2°55.566 12.204782 4.247402 31.359171 -0.848668
2004-03-08 09:01:55 51°13.931 2°55.558 12.204782 4.247402 31.359171 -0.848668
2004-03-08 09:02:00 51°13.94 2°55.551 12.223149 4.247402 31.359171 -0.848668
2004-03-08 09:02:05 51°13.949 2°55.544 12.243641 4.247297 31.358843 -0.814958
2004-03-08 09:02:10 51°13.957 2°55.538 12.277946 4.247297 31.358843 -0.848668
2004-03-08 09:02:15 51°13.966 2°55.531 12.267842 4.247192 31.357974 -0.848668
2004-03-08 09:02:20 51°13.975 2°55.524 12.260592 4.247297 31.358843 -0.848668
2004-03-08 09:02:25 51°13.984 2°55.518 12.260592 4.247297 31.358843 -0.848668
2004-03-08 09:02:29 51°13.991 2°55.512 12.272011 4.247192 31.357974 -0.848668
2004-03-08 09:02:35 51°14.002 2°55.504 12.276632 4.247192 31.359057 -0.848668
2004-03-08 09:02:40 51°14.01 2°55.498 12.271467 4.247192 31.359057 -0.848668
2004-03-08 09:02:45 51°14.019 2°55.491 12.280257 4.247086 31.358188 -0.848668
2004-03-08 09:02:49 51°14.026 2°55.486 12.289408 4.247086 31.359271 -0.882377
2004-03-08 09:02:55 51°14.037 2°55.478 12.289408 4.247086 31.359271 -0.882377
2004-03-08 09:02:59 51°14.044 2°55.473 12.290857 4.247086 31.360354 -0.848668
2004-03-08 09:03:05 51°14.054 2°55.465 12.307162 4.246981 31.359485 -0.848668
2004-03-08 09:03:09 51°14.062 2°55.46 12.314951 4.246981 31.360026 -0.882377
2004-03-08 09:03:15 51°14.073 2°55.452 12.318528 4.246981 31.360026 -0.848668
2004-03-08 09:03:20 51°14.082 2°55.445 12.308249 4.246875 31.359157 -0.848668
2004-03-08 09:03:25 51°14.092 2°55.438 12.308249 4.246875 31.359157 -0.848668
2004-03-08 09:03:29 51°14.1 2°55.432 12.304762 4.246875 31.359698 -0.848668
2004-03-08 09:03:35 51°14.112 2°55.423 12.274458 4.246875 31.359157 -0.882377
2004-03-08 09:03:40 51°14.122 2°55.415 12.275047 4.246875 31.36024 -0.882377
2004-03-08 09:03:45 51°14.132 2°55.408 12.269247 4.246664 31.359043 -0.848668
2004-03-08 09:03:50 51°14.142 2°55.4 12.294617 4.246664 31.359043 -0.882377
2004-03-08 09:03:56 51°14.155 2°55.389 12.294617 4.246664 31.359043 -0.882377
2004-03-08 09:04:00 51°14.163 2°55.382 12.3188 4.246664 31.360126 -0.882377
2004-03-08 09:04:05 51°14.173 2°55.373 12.319886 4.246664 31.360667 -0.848668
2004-03-08 09:04:09 51°14.181 2°55.365 12.338764 4.246664 31.361209 -0.882377
2004-03-08 09:04:15 51°14.193 2°55.353 12.364107 4.246559 31.360881 -0.848668
2004-03-08 09:04:20 51°14.202 2°55.342 12.360126 4.246559 31.360881 -0.848668
2004-03-08 09:04:25 51°14.212 2°55.33 12.360126 4.246559 31.360881 -0.848668
2004-03-08 09:04:31 51°14.223 2°55.316 12.363926 4.246454 31.360012 -0.882377
2004-03-08 09:04:35 51°14.23 2°55.305 12.428327 4.246454 31.360012 -0.848668
2004-03-08 09:04:39 51°14.238 2°55.295 12.390617 4.246454 31.360012 -0.848668
2004-03-08 09:04:45 51°14.249 2°55.277 12.414855 4.246559 31.360881 -0.848668
2004-03-08 09:04:49 51°14.256 2°55.264 12.296202 4.246348 31.359143 -0.848668
2004-03-08 09:04:56 51°14.27 2°55.24 12.296202 4.246348 31.359143 -0.848668
2004-03-08 09:05:00 51°14.277 2°55.226 12.251618 4.246243 31.358815 -0.848668
2004-03-08 09:05:06 51°14.289 2°55.204 12.217798 4.246348 31.359143 -0.848668
2004-03-08 09:05:09 51°14.295 2°55.193 12.212175 4.246137 31.357946 -0.848668
2004-03-08 09:05:15 51°14.308 2°55.171 12.154963 4.246243 31.358274 -0.882377
2004-03-08 09:05:20 51°14.318 2°55.152 12.322648 4.246032 31.357619 -0.882377
2004-03-08 09:05:25 51°14.328 2°55.132 12.322648 4.246032 31.357619 -0.882377
2004-03-08 09:05:30 51°14.339 2°55.112 12.23598 4.246243 31.359899 -0.848668
2004-03-08 09:05:35 51°14.349 2°55.092 12.296293 4.246137 31.359571 -0.814958
2004-03-08 09:05:40 51°14.358 2°55.071 12.260048 4.246032 31.359243 -0.848668
2004-03-08 09:05:45 51°14.368 2°55.05 12.266392 4.246032 31.359243 -0.814958
2004-03-08 09:05:49 51°14.375 2°55.032 12.35284 4.246032 31.359243 -0.848668
2004-03-08 09:05:55 51°14.384 2°55.005 12.35284 4.246032 31.359243 -0.848668
2004-03-08 09:05:59 51°14.389 2°54.986 12.517318 4.245821 31.358588 -0.814958
2004-03-08 09:06:05 51°14.396 2°54.955 12.389893 4.246243 31.361523 -0.848668
2004-03-08 09:06:10 51°14.4 2°54.93 12.327085 4.245926 31.357832 -0.848668
2004-03-08 09:06:15 51°14.405 2°54.904 12.274458 4.245926 31.356208 -0.848668
2004-03-08 09:06:20 51°14.409 2°54.877 12.209182 4.246137 31.356863 -0.848668
2004-03-08 09:06:25 51°14.412 2°54.851 12.209182 4.246137 31.356863 -0.848668
2004-03-08 09:06:30 51°14.416 2°54.824 12.266347 4.245821 31.354797 -0.848668
2004-03-08 09:06:35 51°14.418 2°54.797 12.239244 4.246137 31.357946 -0.848668
2004-03-08 09:06:39 51°14.419 2°54.775 12.277674 4.246032 31.358702 -0.848668
2004-03-08 09:06:45 51°14.421 2°54.741 12.286509 4.245926 31.358916 -0.848668
2004-03-08 09:06:49 51°14.42 2°54.72 12.370623 4.24561 31.357933 -0.848668
2004-03-08 09:06:55 51°14.419 2°54.688 12.370623 4.24561 31.357933 -0.848668
2004-03-08 09:07:00 51°14.417 2°54.662 12.269745 4.245926 31.361624 -0.814958
2004-03-08 09:07:05 51°14.414 2°54.638 12.347997 4.245715 31.360968 -0.814958
2004-03-08 09:07:09 51°14.411 2°54.619 12.302633 4.245926 31.362165 -0.848668
2004-03-08 09:07:15 51°14.406 2°54.592 12.309381 4.245821 31.360754 -0.74754
2004-03-08 09:07:20 51°14.402 2°54.571 12.387677 4.245715 31.359885 -0.74754
2004-03-08 09:07:25 51°14.397 2°54.55 12.387677 4.245715 31.359885 -0.74754
2004-03-08 09:07:29 51°14.393 2°54.534 12.322648 4.245821 31.360213 -0.71383
2004-03-08 09:07:35 51°14.387 2°54.51 12.293937 4.24561 31.357933 -0.680121
2004-03-08 09:07:39 51°14.382 2°54.495 12.305124 4.245715 31.358802 -0.680121
2004-03-08 09:07:45 51°14.375 2°54.472 12.289544 4.245715 31.358802 -0.680121
2004-03-08 09:07:49 51°14.37 2°54.458 12.275636 4.245505 31.357605 -0.71383
2004-03-08 09:07:55 51°14.363 2°54.436 12.275636 4.245505 31.357605 -0.71383
2004-03-08 09:07:59 51°14.358 2°54.423 12.356822 4.24561 31.359016 -0.646411
2004-03-08 09:08:05 51°14.35 2°54.402 12.323825 4.24561 31.359557 -0.680121
2004-03-08 09:08:09 51°14.345 2°54.388 12.290314 4.24561 31.360641 -0.680121
2004-03-08 09:08:15 51°14.337 2°54.368 12.267933 4.245505 31.360855 -0.646411
2004-03-08 09:08:20 51°14.33 2°54.351 12.279894 4.245505 31.360855 -0.680121
2004-03-08 09:08:25 51°14.322 2°54.333 12.279894 4.245505 31.360855 -0.680121
2004-03-08 09:08:29 51°14.316 2°54.318 12.341254 4.245399 31.360527 -0.646411
2004-03-08 09:08:35 51°14.305 2°54.294 12.380349 4.245399 31.360527 -0.578993
2004-03-08 09:08:40 51°14.297 2°54.272 12.277856 4.245294 31.359658 -0.646411
2004-03-08 09:08:45 51°14.287 2°54.249 12.115099 4.245399 31.360527 -0.680121
2004-03-08 09:08:49 51°14.28 2°54.23 12.083345 4.245399 31.359985 -0.680121
2004-03-08 09:08:55 51°14.269 2°54.2 12.083345 4.245399 31.359985 -0.680121
2004-03-08 09:08:59 51°14.261 2°54.179 12.105788 4.245294 31.360741 -0.646411
2004-03-08 09:09:05 51°14.25 2°54.148 12.1963 4.245294 31.360741 -0.680121
2004-03-08 09:09:09 51°14.243 2°54.126 12.072256 4.245083 31.360086 -0.646411
2004-03-08 09:09:15 51°14.232 2°54.094 12.235617 4.244977 31.361384 -0.646411
2004-03-08 09:09:20 51°14.224 2°54.066 12.260954 4.245188 31.364206 -0.612702
2004-03-08 09:09:25 51°14.214 2°54.038 12.260954 4.245188 31.364206 -0.612702
2004-03-08 09:09:29 51°14.208 2°54.016 12.22723 4.244977 31.362467 -0.646411
2004-03-08 09:09:35 51°14.196 2°53.983 12.243278 4.244977 31.363551 -0.646411
2004-03-08 09:09:39 51°14.189 2°53.961 12.161499 4.244872 31.362681 -0.646411
2004-03-08 09:09:45 51°14.177 2°53.928 12.208184 4.244977 31.364093 -0.680121
2004-03-08 09:09:50 51°14.167 2°53.9 12.229134 4.244977 31.363009 -0.646411
2004-03-08 09:09:55 51°14.157 2°53.873 12.229134 4.244977 31.363009 -0.646411
2004-03-08 09:09:59 51°14.149 2°53.852 12.164131 4.244767 31.360728 -0.646411
2004-03-08 09:10:05 51°14.136 2°53.819 12.167172 4.244767 31.36127 -0.646411
2004-03-08 09:10:10 51°14.126 2°53.792 12.182373 4.244977 31.361925 -0.646411
2004-03-08 09:10:15 51°14.116 2°53.764 12.152149 4.244556 31.358447 -0.646411
2004-03-08 09:10:20 51°14.108 2°53.735 12.143842 4.244661 31.359317 -0.646411
2004-03-08 09:10:25 51°14.099 2°53.706 12.143842 4.244661 31.359317 -0.646411
2004-03-08 09:10:29 51°14.094 2°53.682 12.025976 4.244661 31.358775 -0.646411
2004-03-08 09:10:35 51°14.086 2°53.646 12.102971 4.244556 31.359531 -0.646411
2004-03-08 09:10:40 51°14.079 2°53.615 12.167217 4.244556 31.360615 -0.612702
2004-03-08 09:10:45 51°14.074 2°53.585 12.183915 4.244345 31.359418 -0.612702
2004-03-08 09:10:50 51°14.068 2°53.554 12.112919 4.244345 31.360501 -0.646411
2004-03-08 09:10:55 51°14.062 2°53.523 12.112919 4.244345 31.360501 -0.646411
2004-03-08 09:11:00 51°14.056 2°53.493 12.202288 4.24445 31.361913 -0.646411
2004-03-08 09:11:05 51°14.05 2°53.462 12.202061 4.24445 31.362455 -0.646411
2004-03-08 09:11:09 51°14.043 2°53.438 12.22061 4.244345 31.361043 -0.646411
2004-03-08 09:11:15 51°14.034 2°53.402 12.162724 4.244239 31.360174 -0.680121
2004-03-08 09:11:19 51°14.027 2°53.377 12.148517 4.244345 31.359959 -0.646411
2004-03-08 09:11:25 51°14.017 2°53.342 12.148517 4.244345 31.359959 -0.646411
2004-03-08 09:11:29 51°14.01 2°53.318 12.13063 4.244239 31.35909 -0.680121
2004-03-08 09:11:35 51°13.999 2°53.283 12.144159 4.244134 31.358762 -0.646411
2004-03-08 09:11:40 51°13.989 2°53.253 12.173979 4.244239 31.35909 -0.612702
2004-03-08 09:11:45 51°13.98 2°53.224 12.144114 4.244028 31.357351 -0.646411
2004-03-08 09:11:49 51°13.973 2°53.2 12.212719 4.244134 31.35822 -0.680121
2004-03-08 09:11:55 51°13.962 2°53.164 12.212719 4.244134 31.35822 -0.680121
2004-03-08 09:11:59 51°13.955 2°53.139 12.133081 4.244239 31.35909 -0.612702
2004-03-08 09:12:05 51°13.946 2°53.103 12.149607 4.244028 31.357351 -0.646411
2004-03-08 09:12:10 51°13.939 2°53.071 12.13853 4.244028 31.357893 -0.646411
2004-03-08 09:12:15 51°13.931 2°53.04 12.22333 4.243923 31.358649 -0.646411
2004-03-08 09:12:19 51°13.926 2°53.015 12.21417 4.244134 31.360388 -0.680121
2004-03-08 09:12:25 51°13.916 2°52.978 12.21417 4.244134 31.360388 -0.680121
2004-03-08 09:12:29 51°13.911 2°52.952 12.057076 4.243818 31.357237 -0.646411
2004-03-08 09:12:35 51°13.901 2°52.915 12.198523 4.243607 31.358749 -0.646411
2004-03-08 09:12:40 51°13.892 2°52.884 12.205553 4.244134 31.362556 -0.646411
2004-03-08 09:12:45 51°13.884 2°52.853 12.062576 4.243818 31.359405 -0.646411
2004-03-08 09:12:50 51°13.874 2°52.823 12.180785 4.243607 31.359833 -0.646411
2004-03-08 09:12:55 51°13.867 2°52.792 12.180785 4.243607 31.359833 -0.646411
2004-03-08 09:13:00 51°13.857 2°52.762 12.188225 4.243923 31.3619 -0.646411
2004-03-08 09:13:05 51°13.848 2°52.731 12.110602 4.243818 31.359947 -0.646411
2004-03-08 09:13:09 51°13.841 2°52.707 12.164494 4.243607 31.358207 -0.646411
2004-03-08 09:13:15 51°13.83 2°52.67 12.096157 4.243818 31.359405 -0.612702
2004-03-08 09:13:19 51°13.823 2°52.646 12.190494 4.243712 31.357993 -0.646411
2004-03-08 09:13:25 51°13.812 2°52.608 12.190494 4.243712 31.357993 -0.646411
2004-03-08 09:13:29 51°13.804 2°52.584 12.146792 4.243818 31.357779 -0.646411
2004-03-08 09:13:35 51°13.794 2°52.547 12.142707 4.243396 31.353759 -0.680121
2004-03-08 09:13:40 51°13.785 2°52.517 12.153556 4.243501 31.356254 -0.646411
2004-03-08 09:13:45 51°13.776 2°52.485 12.150605 4.243607 31.357124 -0.646411
2004-03-08 09:13:50 51°13.768 2°52.455 12.171347 4.243607 31.357124 -0.680121
2004-03-08 09:13:55 51°13.758 2°52.424 12.171347 4.243607 31.357124 -0.680121
2004-03-08 09:13:59 51°13.751 2°52.399 12.191628 4.24329 31.35614 -0.646411
2004-03-08 09:14:05 51°13.74 2°52.363 12.160001 4.243923 31.360274 -0.646411
2004-03-08 09:14:09 51°13.734 2°52.338 12.061258 4.243396 31.356468 -0.680121
2004-03-08 09:14:15 51°13.722 2°52.301 12.21018 4.243185 31.35798 -0.646411
2004-03-08 09:14:19 51°13.716 2°52.275 12.120549 4.243607 31.359833 -0.578993
2004-03-08 09:14:25 51°13.705 2°52.239 12.120549 4.243607 31.359833 -0.578993
2004-03-08 09:14:30 51°13.697 2°52.207 12.160319 4.243079 31.357653 -0.612702
2004-03-08 09:14:35 51°13.688 2°52.176 12.158322 4.243501 31.359506 -0.680121
2004-03-08 09:14:40 51°13.681 2°52.144 12.095884 4.243185 31.355813 -0.612702
2004-03-08 09:14:45 51°13.671 2°52.114 12.18201 4.243185 31.356896 -0.680121
2004-03-08 09:14:49 51°13.665 2°52.088 12.168488 4.24329 31.357766 -0.680121
2004-03-08 09:14:55 51°13.654 2°52.051 12.168488 4.24329 31.357766 -0.680121
2004-03-08 09:14:59 51°13.647 2°52.026 12.115598 4.243396 31.356468 -0.612702
2004-03-08 09:15:05 51°13.636 2°51.988 12.141072 4.242974 31.352448 -0.680121
2004-03-08 09:15:09 51°13.628 2°51.964 12.144659 4.243185 31.353103 -0.646411
2004-03-08 09:15:15 51°13.616 2°51.928 12.195438 4.243185 31.353103 -0.646411
2004-03-08 09:15:19 51°13.608 2°51.904 12.123319 4.24329 31.352889 -0.646411
2004-03-08 09:15:25 51°13.596 2°51.868 12.123319 4.24329 31.352889 -0.646411
2004-03-08 09:15:29 51°13.588 2°51.843 12.179333 4.243079 31.352234 -0.646411
2004-03-08 09:15:35 51°13.576 2°51.807 12.151423 4.24329 31.354515 -0.646411
2004-03-08 09:15:40 51°13.566 2°51.777 12.141072 4.243079 31.353317 -0.646411
2004-03-08 09:15:45 51°13.558 2°51.745 12.136124 4.243185 31.354187 -0.680121
2004-03-08 09:15:49 51°13.55 2°51.721 12.164494 4.242974 31.354073 -0.646411
2004-03-08 09:15:55 51°13.539 2°51.684 12.164494 4.242974 31.354073 -0.646411
2004-03-08 09:15:59 51°13.532 2°51.658 12.155281 4.243185 31.356896 -0.646411
2004-03-08 09:16:05 51°13.521 2°51.621 12.18573 4.243396 31.358636 -0.680121
2004-03-08 09:16:10 51°13.513 2°51.589 12.126724 4.242974 31.356241 -0.646411
2004-03-08 09:16:15 51°13.504 2°51.559 12.204238 4.243185 31.358522 -0.646411
2004-03-08 09:16:20 51°13.495 2°51.528 12.122592 4.24329 31.35885 -0.680121
2004-03-08 09:16:25 51°13.484 2°51.498 12.122592 4.24329 31.35885 -0.680121
2004-03-08 09:16:29 51°13.477 2°51.473 12.181874 4.242763 31.356669 -0.646411
2004-03-08 09:16:35 51°13.466 2°51.436 12.153193 4.243396 31.360804 -0.646411
2004-03-08 09:16:40 51°13.456 2°51.406 12.140437 4.242763 31.357211 -0.680121
2004-03-08 09:16:45 51°13.446 2°51.375 12.178743 4.24308 31.359821 -0.680121
2004-03-08 09:16:49 51°13.439 2°51.35 12.144613 4.243079 31.358737 -0.646411
2004-03-08 09:16:55 51°13.428 2°51.314 12.144613 4.243079 31.358737 -0.646411
2004-03-08 09:17:00 51°13.419 2°51.283 12.157459 4.242974 31.356783 -0.646411
2004-03-08 09:17:05 51°13.41 2°51.252 12.158549 4.242974 31.355699 -0.646411
2004-03-08 09:17:10 51°13.401 2°51.221 12.16463 4.242974 31.355699 -0.646411
2004-03-08 09:17:15 51°13.393 2°51.19 12.15991 4.243079 31.356027 -0.646411
2004-03-08 09:17:20 51°13.383 2°51.159 12.18319 4.242869 31.355371 -0.680121
2004-03-08 09:17:25 51°13.375 2°51.128 12.18319 4.242869 31.355371 -0.680121
2004-03-08 09:17:29 51°13.367 2°51.104 12.184052 4.242869 31.355371 -0.646411
2004-03-08 09:17:35 51°13.355 2°51.068 12.16404 4.242869 31.355913 -0.646411
2004-03-08 09:17:39 51°13.347 2°51.044 12.144976 4.242658 31.3558 -0.646411
2004-03-08 09:17:45 51°13.336 2°51.007 12.204918 4.242869 31.359165 -0.646411
2004-03-08 09:17:49 51°13.329 2°50.983 12.1605 4.242974 31.359493 -0.612702
2004-03-08 09:17:55 51°13.318 2°50.947 12.1605 4.242974 31.359493 -0.612702
2004-03-08 09:18:00 51°13.308 2°50.917 12.175204 4.242974 31.360577 -0.680121
2004-03-08 09:18:05 51°13.3 2°50.886 12.16454 4.242869 31.359707 -0.646411
2004-03-08 09:18:09 51°13.292 2°50.862 12.191945 4.242869 31.359707 -0.646411
2004-03-08 09:18:15 51°13.281 2°50.826 12.1875 4.242869 31.359707 -0.646411
2004-03-08 09:18:19 51°13.274 2°50.802 12.176565 4.242869 31.359165 -0.680121
2004-03-08 09:18:25 51°13.263 2°50.766 12.176565 4.242869 31.359165 -0.680121
2004-03-08 09:18:30 51°13.254 2°50.735 12.173207 4.242763 31.358838 -0.612702
2004-03-08 09:18:35 51°13.245 2°50.705 12.153919 4.242763 31.358295 -0.612702
2004-03-08 09:18:39 51°13.237 2°50.682 12.189859 4.242658 31.359052 -0.646411
2004-03-08 09:18:45 51°13.226 2°50.645 12.189133 4.242763 31.35938 -0.612702
2004-03-08 09:18:50 51°13.216 2°50.615 12.15696 4.242658 31.359052 -0.612702
2004-03-08 09:18:55 51°13.207 2°50.585 12.15696 4.242658 31.359052 -0.612702
2004-03-08 09:19:00 51°13.198 2°50.555 12.194531 4.242658 31.361221 -0.646411
2004-03-08 09:19:05 51°13.188 2°50.526 12.201698 4.242763 31.362091 -0.646411
2004-03-08 09:19:09 51°13.182 2°50.501 12.15578 4.242552 31.359266 -0.578993
2004-03-08 09:19:15 51°13.17 2°50.466 12.181239 4.242658 31.361221 -0.612702
2004-03-08 09:19:20 51°13.161 2°50.436 12.19004 4.242552 31.360351 -0.612702
2004-03-08 09:19:25 51°13.152 2°50.406 12.19004 4.242552 31.360351 -0.612702
2004-03-08 09:19:30 51°13.143 2°50.375 12.186365 4.242552 31.359808 -0.578993
2004-03-08 09:19:35 51°13.134 2°50.345 12.190766 4.242552 31.360351 -0.646411
2004-03-08 09:19:39 51°13.127 2°50.321 12.204465 4.242552 31.359808 -0.646411
2004-03-08 09:19:45 51°13.117 2°50.285 12.1723 4.242131 31.355787 -0.646411
2004-03-08 09:19:50 51°13.107 2°50.255 12.216801 4.242447 31.361107 -0.612702
2004-03-08 09:19:55 51°13.1 2°50.224 12.216801 4.242447 31.361107 -0.612702
2004-03-08 09:20:00 51°13.09 2°50.194 12.198478 4.242552 31.361977 -0.612702
2004-03-08 09:20:05 51°13.082 2°50.163 12.183734 4.242236 31.360452 -0.612702
2004-03-08 09:20:09 51°13.074 2°50.14 12.2007 4.242342 31.362406 -0.578993
2004-03-08 09:20:15 51°13.064 2°50.104 12.212946 4.242447 31.363819 -0.612702
2004-03-08 09:20:19 51°13.056 2°50.08 12.198614 4.242236 31.360994 -0.578993
2004-03-08 09:20:25 51°13.045 2°50.045 12.198614 4.242236 31.360994 -0.578993
2004-03-08 09:20:30 51°13.035 2°50.016 12.203739 4.242341 31.361322 -0.578993
2004-03-08 09:20:35 51°13.026 2°49.986 12.183825 4.242341 31.359695 -0.612702
2004-03-08 09:20:40 51°13.017 2°49.956 12.208547 4.24192 31.356215 -0.578993
2004-03-08 09:20:45 51°13.008 2°49.927 12.197525 4.242236 31.358825 -0.578993
2004-03-08 09:20:49 51°13.002 2°49.903 12.217798 4.242236 31.359367 -0.578993
2004-03-08 09:20:55 51°12.99 2°49.867 12.217798 4.242236 31.359367 -0.578993
2004-03-08 09:21:00 51°12.982 2°49.837 12.195937 4.242131 31.35904 -0.612702
2004-03-08 09:21:05 51°12.973 2°49.807 12.206279 4.242131 31.359582 -0.578993
2004-03-08 09:21:09 51°12.966 2°49.784 12.216574 4.242236 31.362079 -0.612702
2004-03-08 09:21:15 51°12.955 2°49.748 12.213581 4.242131 31.361751 -0.578993
2004-03-08 09:21:20 51°12.946 2°49.719 12.213082 4.242025 31.361423 -0.578993
2004-03-08 09:21:25 51°12.937 2°49.689 12.213082 4.242025 31.361423 -0.578993
2004-03-08 09:21:29 51°12.929 2°49.666 12.205508 4.242131 31.362293 -0.578993
2004-03-08 09:21:35 51°12.918 2°49.631 12.212583 4.242025 31.361966 -0.578993
2004-03-08 09:21:39 51°12.91 2°49.607 12.215213 4.242025 31.361423 -0.545283
2004-03-08 09:21:45 51°12.899 2°49.572 12.222696 4.242025 31.361423 -0.545283
2004-03-08 09:21:50 51°12.889 2°49.543 12.216665 4.24192 31.360553 -0.578993
2004-03-08 09:21:55 51°12.88 2°49.514 12.216665 4.24192 31.360553 -0.578993
2004-03-08 09:22:00 51°12.87 2°49.484 12.213762 4.242131 31.362836 -0.545283
2004-03-08 09:22:05 51°12.861 2°49.455 12.232625 4.24192 31.361638 -0.545283
2004-03-08 09:22:09 51°12.853 2°49.431 12.206415 4.242025 31.361966 -0.545283
2004-03-08 09:22:15 51°12.841 2°49.396 12.230177 4.24192 31.36218 -0.578993
2004-03-08 09:22:19 51°12.834 2°49.373 12.200428 4.242025 31.36305 -0.545283
2004-03-08 09:22:25 51°12.822 2°49.338 12.200428 4.242025 31.36305 -0.545283
2004-03-08 09:22:29 51°12.815 2°49.314 12.207458 4.24192 31.362723 -0.545283
2004-03-08 09:22:35 51°12.803 2°49.278 12.21222 4.242025 31.364135 -0.545283
2004-03-08 09:22:39 51°12.795 2°49.256 12.241193 4.241814 31.36348 -0.545283
2004-03-08 09:22:45 51°12.784 2°49.22 12.203875 4.24192 31.363807 -0.578993
2004-03-08 09:22:49 51°12.776 2°49.196 12.223466 4.24192 31.36435 -0.545283
2004-03-08 09:22:55 51°12.764 2°49.162 12.223466 4.24192 31.36435 -0.545283
2004-03-08 09:22:59 51°12.756 2°49.138 12.226731 4.241709 31.363152 -0.545283
2004-03-08 09:23:05 51°12.744 2°49.104 12.239244 4.241709 31.364237 -0.578993
2004-03-08 09:23:09 51°12.735 2°49.08 12.241193 4.24192 31.365435 -0.545283
2004-03-08 09:23:15 51°12.724 2°49.045 12.197525 4.241603 31.361739 -0.511574
2004-03-08 09:23:20 51°12.713 2°49.017 12.232262 4.241603 31.364452 -0.511574
2004-03-08 09:23:25 51°12.704 2°48.987 12.232262 4.241603 31.364452 -0.511574
2004-03-08 09:23:29 51°12.695 2°48.965 12.242689 4.242025 31.367933 -0.545283
2004-03-08 09:23:35 51°12.684 2°48.929 12.200791 4.241709 31.365322 -0.477864
2004-03-08 09:23:40 51°12.673 2°48.901 12.232988 4.241604 31.366622 -0.511574
2004-03-08 09:23:45 51°12.664 2°48.872 12.23199 4.241709 31.368035 -0.511574
2004-03-08 09:23:49 51°12.655 2°48.849 12.221063 4.241498 31.366294 -0.545283
2004-03-08 09:23:55 51°12.643 2°48.815 12.221063 4.241498 31.366294 -0.545283
2004-03-08 09:24:00 51°12.633 2°48.786 12.22732 4.241498 31.365752 -0.511574
2004-03-08 09:24:05 51°12.623 2°48.757 12.232126 4.241287 31.364011 -0.545283
2004-03-08 09:24:10 51°12.613 2°48.727 12.225779 4.241498 31.363581 -0.511574
2004-03-08 09:24:15 51°12.603 2°48.699 12.229859 4.241393 31.362711 -0.511574
2004-03-08 09:24:19 51°12.595 2°48.675 12.244457 4.241287 31.361299 -0.511574
2004-03-08 09:24:25 51°12.583 2°48.64 12.244457 4.241287 31.361299 -0.511574
2004-03-08 09:24:29 51°12.574 2°48.617 12.245953 4.241393 31.362169 -0.511574
2004-03-08 09:24:35 51°12.562 2°48.582 12.220927 4.241287 31.361841 -0.511574
2004-03-08 09:24:39 51°12.554 2°48.559 12.245454 4.241393 31.363796 -0.511574
2004-03-08 09:24:45 51°12.542 2°48.524 12.239289 4.241287 31.363468 -0.477864
2004-03-08 09:24:50 51°12.532 2°48.494 12.230041 4.241182 31.363141 -0.477864
2004-03-08 09:24:55 51°12.522 2°48.465 12.230041 4.241182 31.363141 -0.477864
2004-03-08 09:25:00 51°12.512 2°48.436 12.246542 4.241182 31.364768 -0.477864
2004-03-08 09:25:05 51°12.502 2°48.406 12.240286 4.241182 31.364768 -0.511574
2004-03-08 09:25:09 51°12.493 2°48.383 12.252344 4.241287 31.366181 -0.477864
2004-03-08 09:25:15 51°12.482 2°48.347 12.243868 4.241182 31.365311 -0.511574
2004-03-08 09:25:20 51°12.472 2°48.318 12.235527 4.240971 31.362485 -0.477864
2004-03-08 09:25:25 51°12.462 2°48.289 12.235527 4.240971 31.362485 -0.477864
2004-03-08 09:25:29 51°12.453 2°48.265 12.248128 4.241182 31.365854 -0.477864
2004-03-08 09:25:35 51°12.441 2°48.23 12.247856 4.241182 31.365311 -0.477864
2004-03-08 09:25:39 51°12.433 2°48.206 12.244638 4.240971 31.36357 -0.511574
2004-03-08 09:25:45 51°12.42 2°48.171 12.247494 4.240971 31.364656 -0.444155
2004-03-08 09:25:49 51°12.413 2°48.147 12.259595 4.241076 31.365526 -0.477864
2004-03-08 09:25:55 51°12.4 2°48.112 12.259595 4.241076 31.365526 -0.477864
2004-03-08 09:26:00 51°12.39 2°48.082 12.248355 4.240865 31.3627 -0.444155
2004-03-08 09:26:05 51°12.38 2°48.053 12.252344 4.240971 31.364656 -0.477864
2004-03-08 09:26:09 51°12.372 2°48.029 12.250032 4.240971 31.364656 -0.444155
2004-03-08 09:26:15 51°12.36 2°47.993 12.248446 4.24076 31.362372 -0.477864
2004-03-08 09:26:20 51°12.349 2°47.964 12.256559 4.240865 31.36487 -0.444155
2004-03-08 09:26:25 51°12.34 2°47.934 12.256559 4.240865 31.36487 -0.444155
2004-03-08 09:26:29 51°12.332 2°47.911 12.265849 4.240971 31.366826 -0.444155
2004-03-08 09:26:35 51°12.32 2°47.875 12.255969 4.240655 31.36313 -0.444155
2004-03-08 09:26:39 51°12.311 2°47.851 12.255244 4.24076 31.365085 -0.444155
2004-03-08 09:26:45 51°12.3 2°47.816 12.267299 4.240655 31.3653 -0.444155
2004-03-08 09:26:49 51°12.291 2°47.792 12.24831 4.240655 31.364758 -0.444155
2004-03-08 09:26:55 51°12.28 2°47.756 12.24831 4.240655 31.364758 -0.444155
2004-03-08 09:27:00 51°12.27 2°47.726 12.265531 4.240655 31.365843 -0.410446
2004-03-08 09:27:05 51°12.26 2°47.696 12.242054 4.24076 31.366171 -0.444155
2004-03-08 09:27:10 51°12.25 2°47.666 12.275047 4.240549 31.366058 -0.444155
2004-03-08 09:27:15 51°12.24 2°47.636 12.253431 4.24076 31.367256 -0.444155
2004-03-08 09:27:19 51°12.231 2°47.613 12.25257 4.240444 31.365188 -0.410446
2004-03-08 09:27:25 51°12.22 2°47.576 12.25257 4.240444 31.365188 -0.410446
2004-03-08 09:27:29 51°12.212 2°47.552 12.276904 4.24076 31.368342 -0.410446
2004-03-08 09:27:35 51°12.2 2°47.516 12.26825 4.240549 31.366601 -0.410446
2004-03-08 09:27:40 51°12.19 2°47.486 12.272011 4.240338 31.366488 -0.410446
2004-03-08 09:27:45 51°12.181 2°47.455 12.259822 4.240444 31.366816 -0.410446
2004-03-08 09:27:50 51°12.17 2°47.426 12.270788 4.240127 31.365833 -0.376736
2004-03-08 09:27:55 51°12.161 2°47.395 12.270788 4.240127 31.365833 -0.376736
2004-03-08 09:28:00 51°12.15 2°47.365 12.278807 4.240444 31.368444 -0.410446
2004-03-08 09:28:05 51°12.141 2°47.334 12.255244 4.240338 31.368117 -0.410446
2004-03-08 09:28:09 51°12.133 2°47.31 12.265622 4.240338 31.368117 -0.376736
2004-03-08 09:28:15 51°12.121 2°47.273 12.273823 4.240338 31.367031 -0.376736
2004-03-08 09:28:19 51°12.113 2°47.249 12.26748 4.240338 31.366488 -0.410446
2004-03-08 09:28:25 51°12.101 2°47.213 12.26748 4.240338 31.366488 -0.410446
2004-03-08 09:28:30 51°12.091 2°47.182 12.269836 4.240022 31.362791 -0.410446
2004-03-08 09:28:35 51°12.08 2°47.153 12.283292 4.239916 31.363006 -0.376736
2004-03-08 09:28:40 51°12.07 2°47.122 12.276587 4.240233 31.364532 -0.410446
2004-03-08 09:28:45 51°12.06 2°47.091 12.270969 4.240127 31.362576 -0.343027
2004-03-08 09:28:49 51°12.053 2°47.067 12.28003 4.240127 31.363119 -0.376736
2004-03-08 09:28:55 51°12.04 2°47.031 12.28003 4.240127 31.363119 -0.376736
2004-03-08 09:29:00 51°12.03 2°47.001 12.273325 4.240127 31.363662 -0.410446
2004-03-08 09:29:05 51°12.019 2°46.971 12.27917 4.240233 31.36616 -0.343027
2004-03-08 09:29:09 51°12.012 2°46.946 12.274412 4.240022 31.364962 -0.343027
2004-03-08 09:29:15 51°11.999 2°46.911 12.287097 4.240233 31.368875 -0.376736
2004-03-08 09:29:20 51°11.988 2°46.881 12.276723 4.240022 31.368219 -0.343027
2004-03-08 09:29:25 51°11.978 2°46.851 12.276723 4.240022 31.368219 -0.343027
2004-03-08 09:29:29 51°11.969 2°46.827 12.287007 4.240233 31.371046 -0.343027
2004-03-08 09:29:35 51°11.957 2°46.79 12.275047 4.240233 31.371046 -0.376736
2004-03-08 09:29:40 51°11.947 2°46.76 12.283655 4.240127 31.370176 -0.343027
2004-03-08 09:29:45 51°11.938 2°46.728 12.287868 4.240233 31.371046 -0.343027
2004-03-08 09:29:49 51°11.93 2°46.704 12.275545 4.240022 31.368762 -0.343027
2004-03-08 09:29:55 51°11.918 2°46.666 12.275545 4.240022 31.368762 -0.343027
2004-03-08 09:30:00 51°11.909 2°46.636 12.299327 4.240022 31.369848 -0.343027
2004-03-08 09:30:05 51°11.898 2°46.605 12.283383 4.240233 31.371589 -0.309317
2004-03-08 09:30:09 51°11.891 2°46.58 12.283292 4.240022 31.370934 -0.343027
2004-03-08 09:30:15 51°11.879 2°46.543 12.29362 4.240022 31.371477 -0.343027
2004-03-08 09:30:20 51°11.869 2°46.513 12.294843 4.239917 31.371692 -0.309317
2004-03-08 09:30:25 51°11.859 2°46.482 12.294843 4.239917 31.371692 -0.309317
2004-03-08 09:30:30 51°11.849 2°46.451 12.281435 4.240128 31.372348 -0.309317
2004-03-08 09:30:35 51°11.839 2°46.421 12.290903 4.240022 31.37202 -0.343027
2004-03-08 09:30:40 51°11.828 2°46.39 12.295251 4.239917 31.371149 -0.275608
2004-03-08 09:30:45 51°11.819 2°46.359 12.283836 4.239917 31.371149 -0.309317
2004-03-08 09:30:49 51°11.81 2°46.334 12.294119 4.239706 31.370494 -0.309317
2004-03-08 09:30:55 51°11.798 2°46.297 12.294119 4.239706 31.370494 -0.309317
2004-03-08 09:31:00 51°11.788 2°46.266 12.304173 4.239917 31.372779 -0.309317
2004-03-08 09:31:05 51°11.778 2°46.235 12.296791 4.239706 31.370494 -0.309317
2004-03-08 09:31:10 51°11.767 2°46.205 12.306347 4.2396 31.370166 -0.275608
2004-03-08 09:31:15 51°11.758 2°46.172 12.294481 4.239811 31.370822 -0.208189
2004-03-08 09:31:20 51°11.748 2°46.143 12.299237 4.2396 31.370166 -0.309317
2004-03-08 09:31:25 51°11.738 2°46.112 12.299237 4.2396 31.370166 -0.309317
2004-03-08 09:31:29 51°11.729 2°46.087 12.306709 4.239811 31.371908 -0.275608
2004-03-08 09:31:35 51°11.717 2°46.05 12.293756 4.239811 31.372451 -0.275608
2004-03-08 09:31:39 51°11.709 2°46.026 12.303313 4.2396 31.371796 -0.275608
2004-03-08 09:31:45 51°11.696 2°45.99 12.307162 4.239811 31.37408 -0.275608
2004-03-08 09:31:50 51°11.686 2°45.959 12.291265 4.239495 31.371468 -0.208189
2004-03-08 09:31:55 51°11.676 2°45.928 12.291265 4.239495 31.371468 -0.208189
2004-03-08 09:31:59 51°11.667 2°45.904 12.304807 4.2396 31.372882 -0.275608
2004-03-08 09:32:05 51°11.655 2°45.868 12.309834 4.239706 31.37321 -0.208189
2004-03-08 09:32:09 51°11.647 2°45.842 12.298286 4.239495 31.370925 -0.241899
2004-03-08 09:32:15 51°11.636 2°45.805 12.311057 4.2396 31.371796 -0.241899
2004-03-08 09:32:20 51°11.625 2°45.775 12.310196 4.239389 31.371683 -0.241899
2004-03-08 09:32:25 51°11.616 2°45.744 12.310196 4.239389 31.371683 -0.241899
2004-03-08 09:32:30 51°11.606 2°45.712 12.309698 4.239389 31.37277 -0.241899
2004-03-08 09:32:35 51°11.596 2°45.682 12.312008 4.2396 31.372882 -0.275608
2004-03-08 09:32:40 51°11.586 2°45.652 12.307072 4.239179 31.370485 -0.208189
2004-03-08 09:32:45 51°11.577 2°45.62 12.304173 4.2396 31.373425 -0.241899
2004-03-08 09:32:50 51°11.566 2°45.591 12.308883 4.239495 31.373097 -0.208189
2004-03-08 09:32:55 51°11.556 2°45.56 12.308883 4.239495 31.373097 -0.208189
2004-03-08 09:33:00 51°11.546 2°45.53 12.317532 4.2396 31.373968 -0.208189
2004-03-08 09:33:05 51°11.536 2°45.5 12.307207 4.239495 31.373097 -0.241899
2004-03-08 09:33:09 51°11.528 2°45.475 12.312868 4.239284 31.370812 -0.241899
2004-03-08 09:33:15 51°11.516 2°45.439 12.318166 4.239389 31.37277 -0.208189
2004-03-08 09:33:19 51°11.508 2°45.414 12.312732 4.239495 31.374727 -0.208189
2004-03-08 09:33:25 51°11.496 2°45.377 12.312732 4.239495 31.374727 -0.208189
2004-03-08 09:33:30 51°11.487 2°45.347 12.320792 4.239284 31.372985 -0.208189
2004-03-08 09:33:35 51°11.477 2°45.316 12.3164 4.239706 31.376469 -0.208189
2004-03-08 09:33:40 51°11.468 2°45.285 12.314815 4.239284 31.373528 -0.208189
2004-03-08 09:33:45 51°11.457 2°45.255 12.323191 4.239495 31.3769 -0.208189
2004-03-08 09:33:49 51°11.451 2°45.23 12.326632 4.239706 31.377556 -0.17448
2004-03-08 09:33:55 51°11.439 2°45.194 12.326632 4.239706 31.377556 -0.17448
2004-03-08 09:34:00 51°11.429 2°45.163 12.32043 4.239179 31.373201 -0.208189
2004-03-08 09:34:05 51°11.419 2°45.133 12.31649 4.23939 31.376573 -0.208189
2004-03-08 09:34:09 51°11.412 2°45.108 12.326406 4.239495 31.3769 -0.14077
2004-03-08 09:34:15 51°11.4 2°45.071 12.322286 4.239284 31.374072 -0.17448
2004-03-08 09:34:19 51°11.393 2°45.047 12.329167 4.239284 31.374072 -0.17448
2004-03-08 09:34:25 51°11.381 2°45.01 12.329167 4.239284 31.374072 -0.17448
2004-03-08 09:34:29 51°11.374 2°44.985 12.322965 4.239179 31.373744 -0.14077
2004-03-08 09:34:35 51°11.362 2°44.949 12.329122 4.239706 31.378642 -0.17448
2004-03-08 09:34:40 51°11.352 2°44.918 12.325681 4.239495 31.377444 -0.208189
2004-03-08 09:34:45 51°11.343 2°44.887 12.328986 4.2396 31.378315 -0.14077
2004-03-08 09:34:49 51°11.335 2°44.863 12.327538 4.239284 31.377332 -0.17448
2004-03-08 09:34:55 51°11.325 2°44.826 12.327538 4.239284 31.377332 -0.17448
2004-03-08 09:35:00 51°11.314 2°44.796 12.337316 4.239811 31.383318 -0.14077
2004-03-08 09:35:05 51°11.306 2°44.765 12.322241 4.239917 31.385276 -0.14077
2004-03-08 09:35:09 51°11.298 2°44.74 12.334328 4.239811 31.387123 -0.17448
2004-03-08 09:35:15 51°11.287 2°44.703 12.331838 4.239811 31.386579 -0.14077
2004-03-08 09:35:20 51°11.277 2°44.673 12.330797 4.239706 31.385708 -0.14077
2004-03-08 09:35:25 51°11.267 2°44.643 12.330797 4.239706 31.385708 -0.14077
2004-03-08 09:35:29 51°11.259 2°44.619 12.335641 4.239917 31.387994 -0.17448
2004-03-08 09:35:35 51°11.247 2°44.583 12.337995 4.240022 31.387234 -0.107061
2004-03-08 09:35:39 51°11.239 2°44.559 12.337225 4.239811 31.384405 -0.107061
2004-03-08 09:35:45 51°11.227 2°44.522 12.333604 4.239917 31.384732 -0.14077
2004-03-08 09:35:49 51°11.22 2°44.498 12.342204 4.239917 31.385819 -0.14077
2004-03-08 09:35:55 51°11.208 2°44.461 12.342204 4.239917 31.385819 -0.14077
2004-03-08 09:35:59 51°11.201 2°44.437 12.336954 4.240128 31.386475 -0.14077
2004-03-08 09:36:05 51°11.19 2°44.399 12.33804 4.240444 31.391263 -0.17448
2004-03-08 09:36:09 51°11.183 2°44.375 12.343698 4.241077 31.39649 -0.107061
2004-03-08 09:36:15 51°11.173 2°44.337 12.338991 4.240761 31.393876 -0.107061
2004-03-08 09:36:20 51°11.164 2°44.306 12.344286 4.241499 31.401607 -0.107061
2004-03-08 09:36:25 51°11.156 2°44.274 12.344286 4.241499 31.401607 -0.107061
2004-03-08 09:36:30 51°11.147 2°44.243 12.341389 4.241182 31.398449 -0.107061
2004-03-08 09:36:35 51°11.14 2°44.211 12.338674 4.241604 31.402478 -0.14077
2004-03-08 09:36:39 51°11.133 2°44.187 12.347545 4.242342 31.41021 -0.14077
2004-03-08 09:36:45 51°11.124 2°44.149 12.345508 4.242448 31.411081 -0.073352
2004-03-08 09:36:50 51°11.115 2°44.118 12.348857 4.242975 31.415982 -0.073352
2004-03-08 09:36:55 51°11.107 2°44.086 12.348857 4.242975 31.415982 -0.073352
2004-03-08 09:36:59 51°11.1 2°44.061 12.345961 4.243081 31.415221 -0.107061
2004-03-08 09:37:05 51°11.09 2°44.024 12.348857 4.24287 31.413478 -0.073352
2004-03-08 09:37:10 51°11.082 2°43.992 12.349944 4.242659 31.411191 -0.14077
2004-03-08 09:37:15 51°11.074 2°43.961 12.348269 4.242975 31.413805 -0.14077
2004-03-08 09:37:20 51°11.065 2°43.929 12.353654 4.24287 31.415111 -0.073352
2004-03-08 09:37:25 51°11.058 2°43.898 12.353654 4.24287 31.415111 -0.073352
2004-03-08 09:37:30 51°11.049 2°43.867 12.350668 4.242553 31.411408 -0.073352
2004-03-08 09:37:35 51°11.041 2°43.836 12.352614 4.242553 31.413041 -0.107061
2004-03-08 09:37:40 51°11.033 2°43.805 12.355962 4.242448 31.412714 -0.073352
2004-03-08 09:37:45 51°11.024 2°43.773 12.353926 4.242448 31.412714 -0.107061
2004-03-08 09:37:50 51°11.016 2°43.742 12.358949 4.242764 31.414784 -0.107061
2004-03-08 09:37:55 51°11.007 2°43.711 12.358949 4.242764 31.414784 -0.107061
2004-03-08 09:37:59 51°11.001 2°43.685 12.355374 4.243291 31.419141 -0.107061
2004-03-08 09:38:05 51°10.99 2°43.649 12.361121 4.244135 31.427201 -0.073352
2004-03-08 09:38:09 51°10.983 2°43.624 12.361619 4.243608 31.4223 -0.039642
2004-03-08 09:38:15 51°10.972 2°43.587 12.359447 4.243502 31.421972 -0.073352
2004-03-08 09:38:19 51°10.965 2°43.562 12.36542 4.244346 31.429489 -0.073352
2004-03-08 09:38:25 51°10.955 2°43.525 12.36542 4.244346 31.429489 -0.073352
2004-03-08 09:38:30 51°10.946 2°43.494 12.361393 4.24403 31.42633 -0.073352
2004-03-08 09:38:35 51°10.938 2°43.463 12.36284 4.243713 31.423715 -0.073352
2004-03-08 09:38:40 51°10.93 2°43.432 12.364605 4.244662 31.431559 -0.073352
2004-03-08 09:38:45 51°10.922 2°43.401 12.365601 4.244241 31.429162 -0.073352
2004-03-08 09:38:49 51°10.915 2°43.376 12.36836 4.244557 31.432866 -0.039642
2004-03-08 09:38:55 51°10.905 2°43.339 12.36836 4.244557 31.432866 -0.039642
2004-03-08 09:38:59 51°10.899 2°43.314 12.369084 4.244241 31.430796 -0.039642
2004-03-08 09:39:05 51°10.889 2°43.277 12.369808 4.245084 31.438858 -0.039642
2004-03-08 09:39:09 51°10.882 2°43.252 12.371799 4.244979 31.439076 -0.039642
2004-03-08 09:39:15 51°10.872 2°43.215 12.369899 4.244873 31.437115 -0.073352
2004-03-08 09:39:20 51°10.863 2°43.185 12.374106 4.246139 31.448119 -0.107061
2004-03-08 09:39:25 51°10.856 2°43.154 12.374106 4.246139 31.448119 -0.107061
2004-03-08 09:39:29 51°10.849 2°43.129 12.377228 4.246561 31.452696 -0.107061
2004-03-08 09:39:35 51°10.839 2°43.092 12.374242 4.246139 31.448664 -0.073352
2004-03-08 09:39:39 51°10.833 2°43.067 12.373382 4.24635 31.450408 -0.073352
2004-03-08 09:39:45 51°10.823 2°43.031 12.379671 4.246033 31.449428 -0.073352
2004-03-08 09:39:49 51°10.817 2°43.006 12.37759 4.246982 31.457273 -0.073352
2004-03-08 09:39:55 51°10.807 2°42.968 12.37759 4.246982 31.457273 -0.073352
2004-03-08 09:39:59 51°10.8 2°42.944 12.380032 4.246877 31.456947 -0.039642
2004-03-08 09:40:05 51°10.79 2°42.906 12.378902 4.246772 31.456075 -0.073352
2004-03-08 09:40:09 51°10.783 2°42.883 12.381118 4.247088 31.459781 -0.073352
2004-03-08 09:40:15 51°10.772 2°42.846 12.381209 4.247088 31.459781 -0.039642
2004-03-08 09:40:19 51°10.765 2°42.822 12.382747 4.246139 31.451934 -0.039642
2004-03-08 09:40:25 51°10.754 2°42.785 12.382747 4.246139 31.451934 -0.039642
2004-03-08 09:40:29 51°10.748 2°42.76 12.382294 4.244873 31.440928 -0.039642
2004-03-08 09:40:35 51°10.738 2°42.723 12.386727 4.245717 31.448992 -0.039642
2004-03-08 09:40:40 51°10.73 2°42.693 12.385551 4.244768 31.440601 -0.039642
2004-03-08 09:40:45 51°10.722 2°42.662 12.385777 4.244346 31.437659 -0.039642
2004-03-08 09:40:49 51°10.715 2°42.636 12.387903 4.243924 31.434172 -0.039642
2004-03-08 09:40:55 51°10.705 2°42.599 12.387903 4.243924 31.434172 -0.039642
2004-03-08 09:40:59 51°10.699 2°42.574 12.384601 4.245295 31.44605 -0.073352
2004-03-08 09:41:05 51°10.689 2°42.538 12.392471 4.244979 31.445615 -0.039642
2004-03-08 09:41:10 51°10.681 2°42.508 12.389848 4.244663 31.442454 -0.005933
2004-03-08 09:41:15 51°10.672 2°42.478 12.38831 4.24403 31.437223 -0.073352
2004-03-08 09:41:19 51°10.665 2°42.454 12.394552 4.243608 31.434826 -0.073352
2004-03-08 09:41:25 51°10.654 2°42.417 12.394552 4.243608 31.434826 -0.073352
2004-03-08 09:41:29 51°10.647 2°42.393 12.39514 4.243292 31.431666 -0.073352
2004-03-08 09:41:35 51°10.637 2°42.356 12.392516 4.243186 31.430794 -0.073352
2004-03-08 09:41:40 51°10.629 2°42.326 12.392607 4.242975 31.428505 -0.039642
2004-03-08 09:41:45 51°10.62 2°42.296 12.395004 4.242448 31.425236 -0.039642
2004-03-08 09:41:50 51°10.612 2°42.265 12.396451 4.242554 31.426653 -0.039642
2004-03-08 09:41:55 51°10.603 2°42.235 12.396451 4.242554 31.426653 -0.039642
2004-03-08 09:42:00 51°10.596 2°42.203 12.394823 4.241604 31.419351 -0.005933
2004-03-08 09:42:05 51°10.587 2°42.173 12.399617 4.242343 31.427088 -0.039642
2004-03-08 09:42:09 51°10.58 2°42.148 12.396723 4.242659 31.428614 -0.039642
2004-03-08 09:42:15 51°10.57 2°42.111 12.40016 4.241921 31.423056 -0.005933
2004-03-08 09:42:19 51°10.564 2°42.086 12.398531 4.24171 31.421857 -0.039642
2004-03-08 09:42:25 51°10.554 2°42.05 12.398531 4.24171 31.421857 -0.039642
2004-03-08 09:42:29 51°10.547 2°42.025 12.401878 4.241499 31.420658 -0.039642
2004-03-08 09:42:35 51°10.537 2°41.988 12.404817 4.241183 31.418042 -0.005933
2004-03-08 09:42:40 51°10.529 2°41.957 12.404184 4.240234 31.409652 -0.039642
2004-03-08 09:42:45 51°10.521 2°41.925 12.405089 4.240445 31.411395 -0.005933
2004-03-08 09:42:49 51°10.516 2°41.9 12.40649 4.241077 31.417171 -0.039642
2004-03-08 09:42:55 51°10.506 2°41.863 12.40649 4.241077 31.417171 -0.039642
2004-03-08 09:42:59 51°10.5 2°41.837 12.404636 4.240128 31.409869 -0.039642
2004-03-08 09:43:05 51°10.491 2°41.8 12.408163 4.240972 31.417933 -0.005933
2004-03-08 09:43:10 51°10.483 2°41.769 12.407756 4.240128 31.411502 -0.039642
2004-03-08 09:43:15 51°10.474 2°41.739 12.409656 4.24055 31.416079 -0.039642
2004-03-08 09:43:20 51°10.467 2°41.707 12.408163 4.240234 31.412374 -0.039642
2004-03-08 09:43:25 51°10.458 2°41.677 12.408163 4.240234 31.412374 -0.039642
2004-03-08 09:43:29 51°10.451 2°41.653 12.411283 4.240234 31.414008 -0.005933
2004-03-08 09:43:35 51°10.442 2°41.616 12.411781 4.240445 31.415752 -0.005933
2004-03-08 09:43:39 51°10.435 2°41.591 12.412911 4.239812 31.411065 -0.005933
2004-03-08 09:43:45 51°10.426 2°41.554 12.414222 4.240866 31.419784 -0.039642
2004-03-08 09:43:49 51°10.42 2°41.529 12.414403 4.24055 31.416624 -0.005933
2004-03-08 09:43:55 51°10.41 2°41.492 12.414403 4.24055 31.416624 -0.005933
2004-03-08 09:44:00 51°10.402 2°41.461 12.413182 4.240128 31.412591 -0.039642
2004-03-08 09:44:05 51°10.394 2°41.431 12.41689 4.240656 31.418585 -0.039642
2004-03-08 09:44:09 51°10.387 2°41.406 12.41802 4.240445 31.416841 -0.039642
2004-03-08 09:44:15 51°10.377 2°41.369 12.416664 4.240023 31.413353 -0.005933
2004-03-08 09:44:20 51°10.369 2°41.339 12.420009 4.239917 31.412482 -0.005933
2004-03-08 09:44:25 51°10.36 2°41.309 12.420009 4.239917 31.412482 -0.005933
2004-03-08 09:44:29 51°10.353 2°41.285 12.420552 4.239706 31.411827 -0.005933
2004-03-08 09:44:35 51°10.344 2°41.247 12.421818 4.239706 31.412916 -0.039642
2004-03-08 09:44:40 51°10.335 2°41.217 12.42245 4.239601 31.412044 -0.039642
2004-03-08 09:44:45 51°10.327 2°41.186 12.425118 4.239601 31.412589 -0.005933
2004-03-08 09:44:49 51°10.32 2°41.162 12.4201 4.239285 31.409428 -0.005933
2004-03-08 09:44:55 51°10.311 2°41.125 12.4201 4.239285 31.409428 -0.005933
2004-03-08 09:44:59 51°10.304 2°41.101 12.42557 4.240128 31.419128 -0.039642
2004-03-08 09:45:05 51°10.293 2°41.064 12.424575 4.239601 31.413134 -0.005933
2004-03-08 09:45:09 51°10.286 2°41.04 12.426293 4.238968 31.408446 -0.005933
2004-03-08 09:45:15 51°10.276 2°41.003 12.427333 4.239285 31.410518 -0.039642
2004-03-08 09:45:20 51°10.268 2°40.973 12.428824 4.239074 31.408229 -0.005933
2004-03-08 09:45:25 51°10.26 2°40.942 12.428824 4.239074 31.408229 -0.005933
2004-03-08 09:45:29 51°10.253 2°40.918 12.42905 4.238652 31.404741 -0.039642
2004-03-08 09:45:35 51°10.243 2°40.881 12.430587 4.238336 31.401581 -0.005933
2004-03-08 09:45:40 51°10.234 2°40.851 12.431582 4.23823 31.401798 -0.005933
2004-03-08 09:45:45 51°10.226 2°40.821 12.432757 4.238125 31.402015 -0.039642
2004-03-08 09:45:49 51°10.219 2°40.796 12.433932 4.237808 31.398855 0.027777
2004-03-08 09:45:55 51°10.21 2°40.759 12.433932 4.237808 31.398855 0.027777
2004-03-08 09:45:59 51°10.204 2°40.734 12.434294 4.237808 31.399399 -0.039642
2004-03-08 09:46:05 51°10.194 2°40.697 12.436147 4.237703 31.399616 -0.005933
2004-03-08 09:46:09 51°10.188 2°40.672 12.437774 4.237387 31.396456 -0.005933
2004-03-08 09:46:15 51°10.178 2°40.635 12.439808 4.237387 31.397545 0.027777
2004-03-08 09:46:20 51°10.17 2°40.605 12.439717 4.237281 31.396673 -0.005933
2004-03-08 09:46:25 51°10.161 2°40.575 12.439717 4.237281 31.396673 -0.005933
2004-03-08 09:46:29 51°10.155 2°40.55 12.441254 4.237387 31.398634 -0.005933
2004-03-08 09:46:35 51°10.145 2°40.513 12.441751 4.237176 31.39689 -0.005933
2004-03-08 09:46:40 51°10.136 2°40.483 12.442971 4.23707 31.396018 -0.005933
2004-03-08 09:46:45 51°10.128 2°40.453 12.444011 4.23707 31.396018 -0.005933
2004-03-08 09:46:49 51°10.121 2°40.429 12.444644 4.236543 31.391113 0.061486
2004-03-08 09:46:55 51°10.111 2°40.392 12.444644 4.236543 31.391113 0.061486
2004-03-08 09:46:59 51°10.104 2°40.368 12.445683 4.236648 31.393074 0.027777
2004-03-08 09:47:05 51°10.094 2°40.332 12.447807 4.236859 31.394818 -0.005933
2004-03-08 09:47:09 51°10.087 2°40.308 12.447039 4.236754 31.393401 -0.005933
2004-03-08 09:47:15 51°10.077 2°40.272 12.448485 4.236438 31.39133 0.027777
2004-03-08 09:47:20 51°10.069 2°40.241 12.450021 4.236648 31.393618 -0.005933
2004-03-08 09:47:25 51°10.06 2°40.211 12.450021 4.236648 31.393618 -0.005933
2004-03-08 09:47:30 51°10.052 2°40.18 12.450202 4.236438 31.392419 -0.005933
2004-03-08 09:47:35 51°10.045 2°40.149 12.44844 4.236016 31.388931 -0.005933
2004-03-08 09:47:39 51°10.037 2°40.125 12.453681 4.236543 31.394924 -0.039642
2004-03-08 09:47:45 51°10.029 2°40.088 12.45445 4.236121 31.390347 -0.005933
2004-03-08 09:47:49 51°10.021 2°40.064 12.45219 4.236016 31.390019 0.027777
2004-03-08 09:47:55 51°10.012 2°40.027 12.45219 4.236016 31.390019 0.027777
2004-03-08 09:47:59 51°10.005 2°40.003 12.455173 4.236121 31.39198 -0.039642
2004-03-08 09:48:05 51°9.995 2°39.966 12.455941 4.23591 31.389692 -0.005933
2004-03-08 09:48:09 51°9.989 2°39.941 12.45585 4.23591 31.389147 -0.005933
2004-03-08 09:48:15 51°9.979 2°39.904 12.457206 4.235805 31.389364 -0.039642
2004-03-08 09:48:20 51°9.972 2°39.873 12.458245 4.235489 31.386204 -0.005933
2004-03-08 09:48:25 51°9.964 2°39.843 12.458245 4.235489 31.386204 -0.005933
2004-03-08 09:48:29 51°9.958 2°39.818 12.458878 4.235594 31.38762 -0.039642
2004-03-08 09:48:35 51°9.948 2°39.781 12.460188 4.235699 31.389581 -0.039642
2004-03-08 09:48:40 51°9.939 2°39.751 12.461137 4.235489 31.388381 -0.005933
2004-03-08 09:48:45 51°9.932 2°39.72 12.460143 4.235383 31.386965 -0.005933
2004-03-08 09:48:49 51°9.925 2°39.696 12.462221 4.235383 31.388598 0.027777
2004-03-08 09:48:55 51°9.916 2°39.659 12.462221 4.235383 31.388598 0.027777
2004-03-08 09:49:00 51°9.908 2°39.628 12.464209 4.235383 31.388054 -0.005933
2004-03-08 09:49:05 51°9.9 2°39.597 12.464977 4.235383 31.388054 -0.005933
2004-03-08 09:49:09 51°9.893 2°39.573 12.466287 4.235278 31.387726 -0.005933
2004-03-08 09:49:15 51°9.883 2°39.537 12.466649 4.235278 31.388815 -0.005933
2004-03-08 09:49:19 51°9.877 2°39.512 12.468185 4.234856 31.384782 -0.005933
2004-03-08 09:49:25 51°9.867 2°39.475 12.468185 4.234856 31.384782 -0.005933
2004-03-08 09:49:29 51°9.861 2°39.451 12.469133 4.235278 31.388815 0.027777
2004-03-08 09:49:35 51°9.851 2°39.414 12.469856 4.234856 31.385326 -0.005933
2004-03-08 09:49:39 51°9.844 2°39.39 12.471528 4.234961 31.386743 -0.005933
2004-03-08 09:49:45 51°9.835 2°39.353 12.472838 4.234961 31.386198 -0.005933
2004-03-08 09:49:49 51°9.828 2°39.328 12.471076 4.234645 31.384126 0.027777
2004-03-08 09:49:55 51°9.819 2°39.292 12.471076 4.234645 31.384126 0.027777
2004-03-08 09:50:00 51°9.811 2°39.261 12.473786 4.23475 31.385543 0.027777
2004-03-08 09:50:05 51°9.804 2°39.23 12.474419 4.23475 31.386087 -0.005933
2004-03-08 09:50:09 51°9.797 2°39.205 12.475593 4.23475 31.386632 0.027777
2004-03-08 09:50:15 51°9.788 2°39.168 12.476677 4.234645 31.386849 -0.005933
2004-03-08 09:50:20 51°9.78 2°39.137 12.477039 4.234645 31.386849 -0.039642
2004-03-08 09:50:25 51°9.772 2°39.107 12.477039 4.234645 31.386849 -0.039642
2004-03-08 09:50:29 51°9.766 2°39.082 12.477039 4.234434 31.385649 -0.005933
2004-03-08 09:50:35 51°9.756 2°39.046 12.480291 4.23454 31.386521 -0.005933
2004-03-08 09:50:40 51°9.748 2°39.015 12.476361 4.234012 31.38216 0.027777
2004-03-08 09:50:45 51°9.739 2°38.985 12.481104 4.234434 31.386738 -0.005933
2004-03-08 09:50:49 51°9.733 2°38.96 12.480742 4.234223 31.38336 0.027777
2004-03-08 09:50:55 51°9.723 2°38.924 12.480742 4.234223 31.38336 0.027777
2004-03-08 09:51:00 51°9.715 2°38.893 12.482414 4.234118 31.384121 -0.005933
2004-03-08 09:51:05 51°9.707 2°38.863 12.48133 4.234223 31.384993 -0.005933
2004-03-08 09:51:10 51°9.699 2°38.832 12.484356 4.234329 31.385321 0.027777
2004-03-08 09:51:15 51°9.691 2°38.801 12.484446 4.234012 31.383793 -0.005933
2004-03-08 09:51:20 51°9.683 2°38.771 12.485891 4.234329 31.386955 0.027777
2004-03-08 09:51:25 51°9.675 2°38.74 12.485891 4.234329 31.386955 0.027777
2004-03-08 09:51:30 51°9.667 2°38.71 12.48684 4.234012 31.385427 0.027777
2004-03-08 09:51:35 51°9.659 2°38.679 12.487924 4.233801 31.382593 0.027777
2004-03-08 09:51:40 51°9.652 2°38.648 12.486975 4.233907 31.38401 0.027777
2004-03-08 09:51:45 51°9.643 2°38.618 12.488962 4.234012 31.387061 -0.005933
2004-03-08 09:51:50 51°9.636 2°38.587 12.490543 4.234012 31.385972 -0.005933
2004-03-08 09:51:55 51°9.626 2°38.557 12.490543 4.234012 31.385972 -0.005933
2004-03-08 09:52:00 51°9.619 2°38.526 12.490995 4.233696 31.383899 -0.005933
2004-03-08 09:52:05 51°9.61 2°38.498 12.491401 4.233907 31.386733 0.061486
2004-03-08 09:52:09 51°9.605 2°38.475 12.493072 4.23338 31.382371 -0.039642
2004-03-08 09:52:15 51°9.594 2°38.445 12.493704 4.233591 31.38575 0.027777
2004-03-08 09:52:19 51°9.588 2°38.426 12.493704 4.233696 31.387167 -0.005933
2004-03-08 09:52:25 51°9.577 2°38.401 12.493704 4.233696 31.387167 -0.005933
2004-03-08 09:52:30 51°9.568 2°38.383 12.49104 4.233802 31.387495 0.027777
2004-03-08 09:52:35 51°9.559 2°38.367 12.49524 4.23338 31.38455 -0.005933
2004-03-08 09:52:39 51°9.552 2°38.356 12.494201 4.233485 31.386512 0.027777
2004-03-08 09:52:45 51°9.541 2°38.342 12.492575 4.233591 31.386295 0.027777
2004-03-08 09:52:49 51°9.534 2°38.334 12.495827 4.237703 31.412146 -0.005933
2004-03-08 09:52:55 51°9.524 2°38.322 12.495827 4.237703 31.412146 -0.005933
2004-03-08 09:53:00 51°9.516 2°38.314 12.495601 4.234223 31.387716 -0.005933
2004-03-08 09:53:05 51°9.508 2°38.306 12.494066 4.232431 31.372887 0.027777
2004-03-08 09:53:10 51°9.501 2°38.3 6.60261 4.116447 30.7325 -0.005933
2004-03-08 09:53:15 51°9.495 2°38.295 5.904773 3.289103 23.951088 -0.073352
2004-03-08 09:53:20 51°9.489 2°38.291 5.470932 3.785248 29.19795 1.679537
2004-03-08 09:53:25 51°9.485 2°38.288 5.470932 3.785248 29.19795 1.679537
2004-03-08 09:53:30 51°9.48 2°38.285 5.294569 3.77559 31.527531 1.645828
2004-03-08 09:53:35 51°9.477 2°38.283 5.173919 3.546853 32.119733 2.690819
2004-03-08 09:53:40 51°9.474 2°38.281 5.100244 3.223287 30.771109 5.151606
2004-03-08 09:53:45 51°9.472 2°38.279 5.058105 3.100415 30.319944 6.129178
2004-03-08 09:53:50 51°9.471 2°38.276 5.037532 3.103791 30.909777 6.230306
2004-03-08 09:53:55 51°9.47 2°38.274 5.037532 3.103791 30.909777 6.230306
2004-03-08 09:54:00 51°9.469 2°38.271 5.039103 3.181923 32.089548 7.309007
2004-03-08 09:54:05 51°9.469 2°38.268 5.020298 3.119169 31.618191 7.073042
2004-03-08 09:54:09 51°9.468 2°38.266 5.00884 3.091585 31.431895 6.870785
2004-03-08 09:54:15 51°9.467 2°38.263 5.006355 3.108116 31.700529 6.870785
2004-03-08 09:54:20 51°9.466 2°38.26 4.978156 3.093587 31.598843 6.904494
2004-03-08 09:54:25 51°9.466 2°38.257 4.978156 3.093587 31.598843 6.904494
2004-03-08 09:54:30 51°9.465 2°38.254 4.975873 3.094219 31.638824 6.904494
2004-03-08 09:54:35 51°9.464 2°38.251 4.965675 3.075479 31.463752 6.837076
2004-03-08 09:54:40 51°9.463 2°38.248 4.955882 3.075163 31.491308 6.870785
2004-03-08 09:54:45 51°9.462 2°38.246 4.95781 3.080954 31.584031 6.769657
2004-03-08 09:54:49 51°9.461 2°38.243 4.955476 3.043791 31.179332 6.803366
2004-03-08 09:54:55 51°9.46 2°38.24 4.955476 3.043791 31.179332 6.803366
2004-03-08 09:54:59 51°9.459 2°38.238 4.947356 3.078112 31.580617 6.870785
2004-03-08 09:55:05 51°9.458 2°38.234 4.942128 3.073059 31.552099 6.735947
2004-03-08 09:55:09 51°9.458 2°38.232 4.934209 3.074217 31.566897 6.837076
2004-03-08 09:55:15 51°9.456 2°38.229 4.939234 3.069584 31.520888 6.904494
2004-03-08 09:55:20 51°9.455 2°38.226 4.929589 3.070321 31.539967 6.837076
2004-03-08 09:55:25 51°9.454 2°38.223 4.929589 3.070321 31.539967 6.837076
2004-03-08 09:55:30 51°9.453 2°38.221 4.944412 3.069374 31.544867 6.870785
2004-03-08 09:55:35 51°9.452 2°38.218 4.930401 3.057583 31.416655 6.870785
2004-03-08 09:55:39 51°9.451 2°38.216 4.931772 3.067374 31.533679 6.803366
2004-03-08 09:55:45 51°9.45 2°38.213 4.933955 3.07148 31.590273 6.904494
2004-03-08 09:55:49 51°9.449 2°38.211 4.92177 3.065268 31.523762 6.870785
2004-03-08 09:55:55 51°9.447 2°38.208 4.92177 3.065268 31.523762 6.870785
2004-03-08 09:56:00 51°9.446 2°38.205 4.921009 3.064321 31.514637 6.904494
2004-03-08 09:56:05 51°9.445 2°38.202 4.924461 3.060426 31.479408 7.039332
2004-03-08 09:56:11 51°9.444 2°38.199 4.921161 3.03916 31.244227 7.073042
2004-03-08 09:56:15 51°9.443 2°38.197 4.921415 3.056741 31.448209 7.207879
2004-03-08 09:56:20 51°9.441 2°38.195 4.921618 3.052741 31.40929 7.073042
2004-03-08 09:56:25 51°9.44 2°38.192 4.921618 3.052741 31.40929 7.073042
2004-03-08 09:56:30 51°9.439 2°38.19 4.917302 3.059478 31.493367 7.275298
2004-03-08 09:56:35 51°9.438 2°38.187 4.917403 3.062426 31.526918 6.971913
2004-03-08 09:56:40 51°9.436 2°38.184 4.913595 3.064427 31.553822 7.106751
2004-03-08 09:56:45 51°9.435 2°38.182 4.917048 3.06569 31.570688 7.275298
2004-03-08 09:56:50 51°9.433 2°38.18 4.914001 3.02379 31.096506 7.17417
2004-03-08 09:56:55 51°9.432 2°38.177 4.914001 3.02379 31.096506 7.17417
2004-03-08 09:57:00 51°9.43 2°38.175 4.909634 3.051477 31.417139 7.275298
2004-03-08 09:57:05 51°9.429 2°38.172 4.907247 3.060321 31.520295 7.342717
2004-03-08 09:57:10 51°9.428 2°38.17 4.914001 3.060952 31.525009 7.14046
2004-03-08 09:57:15 51°9.426 2°38.168 4.911767 3.057268 31.48553 7.241589
2004-03-08 09:57:20 51°9.425 2°38.166 4.912275 3.06011 31.527816 7.511264
2004-03-08 09:57:25 51°9.423 2°38.163 4.912275 3.06011 31.527816 7.511264
2004-03-08 09:57:29 51°9.422 2°38.162 4.910599 3.057268 31.495438 7.477554
2004-03-08 09:57:35 51°9.42 2°38.159 4.910091 3.057794 31.50226 7.241589
2004-03-08 09:57:39 51°9.419 2°38.157 4.908263 3.060847 31.532076 7.275298
2004-03-08 09:57:45 51°9.417 2°38.154 4.909685 3.058742 31.515532 7.342717
2004-03-08 09:57:50 51°9.416 2°38.152 4.911919 3.057689 31.500235 7.106751
2004-03-08 09:57:55 51°9.414 2°38.15 4.911919 3.057689 31.500235 7.106751
2004-03-08 09:58:00 51°9.412 2°38.148 4.91263 3.003473 30.888385 7.207879
2004-03-08 09:58:05 51°9.411 2°38.147 4.91786 3.058637 31.514333 7.106751
2004-03-08 09:58:09 51°9.41 2°38.145 4.917657 3.062321 31.566247 7.17417
2004-03-08 09:58:15 51°9.408 2°38.143 4.916896 3.059584 31.530916 7.342717
2004-03-08 09:58:20 51°9.406 2°38.141 4.914712 3.060742 31.544111 7.106751
2004-03-08 09:58:25 51°9.405 2°38.139 4.914712 3.060742 31.544111 7.106751
2004-03-08 09:58:30 51°9.403 2°38.137 4.918216 3.061374 31.549654 7.005623
2004-03-08 09:58:35 51°9.401 2°38.135 4.914052 3.061269 31.548455 6.938204
2004-03-08 09:58:40 51°9.4 2°38.133 4.917759 3.060321 31.532695 7.005623
2004-03-08 09:58:45 51°9.398 2°38.131 4.920907 3.056531 31.505222 6.904494
2004-03-08 09:58:50 51°9.396 2°38.129 4.916134 3.052952 31.454529 6.971913
2004-03-08 09:58:55 51°9.394 2°38.127 4.916134 3.052952 31.454529 6.971913
2004-03-08 09:59:00 51°9.393 2°38.126 4.912732 3.062006 31.562648 6.803366
2004-03-08 09:59:05 51°9.391 2°38.124 4.91263 3.057584 31.512258 6.837076
2004-03-08 09:59:10 51°9.39 2°38.122 4.916134 3.062742 31.568562 6.769657
2004-03-08 09:59:15 51°9.388 2°38.12 4.91197 3.060111 31.544361 6.803366
2004-03-08 09:59:20 51°9.386 2°38.118 4.914357 3.05811 31.522391 6.803366
2004-03-08 09:59:25 51°9.385 2°38.117 4.914357 3.05811 31.522391 6.803366
2004-03-08 09:59:30 51°9.383 2°38.115 4.909989 3.060637 31.548705 6.971913
2004-03-08 09:59:35 51°9.381 2°38.113 4.909786 3.054636 31.482801 6.769657
2004-03-08 09:59:40 51°9.38 2°38.112 4.909634 3.052741 31.463686 6.769657
2004-03-08 09:59:45 51°9.378 2°38.11 4.908923 3.060321 31.5509 6.837076
2004-03-08 09:59:49 51°9.376 2°38.109 4.907602 3.060848 31.556073 6.870785
2004-03-08 09:59:55 51°9.372 2°38.109 4.907602 3.060848 31.556073 6.870785
2004-03-08 10:00:00 51°9.368 2°38.109 4.912173 3.061479 31.567415 6.803366
2004-03-08 10:00:05 51°9.363 2°38.109 4.906434 3.060637 31.553673 6.837076
2004-03-08 10:00:10 51°9.358 2°38.11 4.909126 3.052741 31.465337 6.803366
2004-03-08 10:00:15 51°9.352 2°38.11 4.907399 3.054215 31.487918 6.904494
2004-03-08 10:00:20 51°9.345 2°38.109 4.903031 3.058426 31.537577 7.073042
2004-03-08 10:00:25 51°9.338 2°38.108 4.903031 3.058426 31.537577 7.073042
2004-03-08 10:00:30 51°9.33 2°38.106 4.903539 3.059584 31.551608 6.971913
2004-03-08 10:00:35 51°9.321 2°38.103 4.903743 3.061058 31.568414 6.837076
2004-03-08 10:00:40 51°9.312 2°38.098 4.905114 3.060321 31.563326 6.870785
2004-03-08 10:00:45 51°9.304 2°38.092 4.904098 3.057268 31.528512 7.14046
2004-03-08 10:00:49 51°9.297 2°38.085 4.901914 3.057689 31.534142 6.938204
2004-03-08 10:00:55 51°9.286 2°38.074 4.901914 3.057689 31.534142 6.938204
2004-03-08 10:01:00 51°9.277 2°38.063 4.899578 3.058532 31.544574 7.005623
2004-03-08 10:01:05 51°9.27 2°38.05 4.89907 3.056952 31.527394 6.870785
2004-03-08 10:01:10 51°9.262 2°38.037 4.931315 3.058005 31.538571 7.241589
2004-03-08 10:01:15 51°9.255 2°38.021 4.911564 3.044109 31.380988 6.971913
2004-03-08 10:01:20 51°9.249 2°38.005 4.932229 3.056426 31.52222 7.005623
2004-03-08 10:01:25 51°9.244 2°37.988 4.932229 3.056426 31.52222 7.005623
2004-03-08 10:01:30 51°9.24 2°37.97 4.933194 3.054742 31.503841 7.073042
2004-03-08 10:01:35 51°9.237 2°37.951 4.929488 3.050952 31.454024 7.275298
2004-03-08 10:01:40 51°9.235 2°37.932 4.941975 3.042424 31.355208 6.938204
2004-03-08 10:01:45 51°9.235 2°37.913 4.932584 3.046951 31.399366 7.207879
2004-03-08 10:01:49 51°9.235 2°37.897 4.918419 3.04653 31.388803 6.904494
2004-03-08 10:01:55 51°9.237 2°37.875 4.918419 3.04653 31.388803 6.904494
2004-03-08 10:02:00 51°9.24 2°37.856 4.948015 3.035897 31.26527 7.14046
2004-03-08 10:02:05 51°9.243 2°37.838 4.93497 3.036002 31.261547 7.073042
2004-03-08 10:02:09 51°9.247 2°37.824 4.960195 3.050741 31.429348 6.938204
2004-03-08 10:02:15 51°9.254 2°37.805 4.959485 3.040634 31.317557 7.309007
2004-03-08 10:02:20 51°9.261 2°37.79 4.940808 3.042213 31.335536 7.275298
2004-03-08 10:02:25 51°9.268 2°37.776 4.940808 3.042213 31.335536 7.275298
2004-03-08 10:02:30 51°9.276 2°37.764 4.924055 3.040318 31.31314 7.207879
2004-03-08 10:02:35 51°9.285 2°37.754 4.916439 3.036213 31.258204 7.14046
2004-03-08 10:02:40 51°9.294 2°37.745 4.937356 3.036634 31.263816 7.17417
2004-03-08 10:02:45 51°9.304 2°37.738 4.934564 3.046109 31.379067 7.17417
2004-03-08 10:02:49 51°9.312 2°37.733 4.908009 3.047056 31.398094 7.14046
2004-03-08 10:02:55 51°9.324 2°37.728 4.908009 3.047056 31.398094 7.14046
2004-03-08 10:03:00 51°9.335 2°37.725 4.927101 3.048741 31.424703 7.073042
2004-03-08 10:03:05 51°9.345 2°37.723 4.91263 3.048425 31.414508 7.14046
2004-03-08 10:03:09 51°9.354 2°37.722 4.898308 3.04095 31.323618 7.106751
2004-03-08 10:03:15 51°9.366 2°37.721 4.898663 3.050636 31.445472 7.477554
2004-03-08 10:03:19 51°9.375 2°37.72 4.902625 3.041055 31.33715 7.477554
2004-03-08 10:03:25 51°9.388 2°37.719 4.902625 3.041055 31.33715 7.477554
2004-03-08 10:03:30 51°9.399 2°37.718 4.90039 3.051267 31.459276 7.410136
2004-03-08 10:03:35 51°9.411 2°37.718 4.894244 3.049162 31.443533 7.309007
2004-03-08 10:03:40 51°9.423 2°37.718 4.896225 3.042214 31.370926 7.477554
2004-03-08 10:03:45 51°9.436 2°37.72 4.896428 3.063375 31.614745 7.309007
2004-03-08 10:03:49 51°9.446 2°37.722 4.895057 3.057058 31.541846 7.410136
2004-03-08 10:03:55 51°9.461 2°37.725 4.895057 3.057058 31.541846 7.410136
2004-03-08 10:04:00 51°9.474 2°37.729 4.898867 3.061795 31.599216 7.342717
2004-03-08 10:04:05 51°9.488 2°37.732 4.893685 3.056532 31.543299 7.275298
2004-03-08 10:04:09 51°9.499 2°37.735 4.899781 3.064217 31.629342 7.443845
2004-03-08 10:04:15 51°9.515 2°37.737 4.897901 3.0539 31.511614 7.410136
2004-03-08 10:04:20 51°9.53 2°37.739 4.900594 3.049373 31.461631 7.612392
2004-03-08 10:04:25 51°9.544 2°37.74 4.900594 3.049373 31.461631 7.612392
2004-03-08 10:04:29 51°9.555 2°37.741 4.896987 3.063164 31.618988 7.443845
2004-03-08 10:04:35 51°9.573 2°37.742 4.896428 3.067691 31.668166 7.309007
2004-03-08 10:04:39 51°9.584 2°37.742 4.899781 3.064638 31.634148 7.544973
2004-03-08 10:04:45 51°9.602 2°37.741 4.899578 3.062217 31.607343 7.342717
2004-03-08 10:04:50 51°9.616 2°37.74 4.899222 3.056847 31.545245 7.544973
2004-03-08 10:04:55 51°9.631 2°37.74 4.899222 3.056847 31.545245 7.544973
2004-03-08 10:05:00 51°9.646 2°37.739 4.899933 3.066112 31.653467 7.511264
2004-03-08 10:05:05 51°9.661 2°37.738 4.900289 3.058953 31.570928 7.410136
2004-03-08 10:05:10 51°9.675 2°37.736 4.902981 3.065901 31.650232 7.612392
2004-03-08 10:05:15 51°9.688 2°37.735 4.89907 3.069902 31.694238 7.679811
2004-03-08 10:05:20 51°9.7 2°37.732 4.900136 3.046635 31.428761 7.612392
2004-03-08 10:05:25 51°9.712 2°37.729 4.900136 3.046635 31.428761 7.612392
2004-03-08 10:05:29 51°9.72 2°37.726 4.898511 3.03516 31.299583 7.443845
2004-03-08 10:05:35 51°9.732 2°37.721 4.896225 3.063585 31.622132 7.646101
2004-03-08 10:05:39 51°9.74 2°37.717 4.897546 3.063585 31.624625 7.443845
2004-03-08 10:05:45 51°9.75 2°37.71 4.89846 3.06727 31.666687 7.309007
2004-03-08 10:05:49 51°9.757 2°37.705 4.899628 3.063269 31.622682 7.477554
2004-03-08 10:05:55 51°9.765 2°37.698 4.899628 3.063269 31.622682 7.477554
2004-03-08 10:06:00 51°9.772 2°37.691 4.904454 3.068639 31.683977 7.17417
2004-03-08 10:06:05 51°9.779 2°37.684 4.904961 3.068218 31.680002 7.14046
2004-03-08 10:06:09 51°9.783 2°37.678 4.904504 3.069586 31.697295 6.938204
2004-03-08 10:06:15 51°9.79 2°37.669 4.904657 3.068323 31.682037 6.735947
2004-03-08 10:06:19 51°9.794 2°37.663 4.902879 3.063691 31.627489 6.702238
2004-03-08 10:06:25 51°9.799 2°37.654 4.902879 3.063691 31.627489 6.702238
2004-03-08 10:06:29 51°9.802 2°37.647 4.901914 3.069165 31.689155 6.331435
2004-03-08 10:06:35 51°9.807 2°37.638 4.901305 3.067375 31.667889 6.297725
2004-03-08 10:06:40 51°9.81 2°37.63 4.899832 3.065796 31.64903 5.825794
2004-03-08 10:06:45 51°9.813 2°37.623 4.895006 3.058005 31.560946 5.825794
2004-03-08 10:06:49 51°9.816 2°37.617 4.898613 3.06906 31.687953 5.926922
2004-03-08 10:06:55 51°9.819 2°37.608 4.898613 3.06906 31.687953 5.926922
2004-03-08 10:07:00 51°9.822 2°37.6 4.894295 3.075271 31.759718 5.758375
2004-03-08 10:07:05 51°9.825 2°37.592 4.891552 3.07085 31.709222 5.792084
2004-03-08 10:07:10 51°9.828 2°37.585 4.890841 3.070323 31.707377 5.724665
2004-03-08 10:07:15 51°9.832 2°37.578 4.893127 3.070113 31.704972 5.758375
2004-03-08 10:07:20 51°9.835 2°37.572 4.890536 3.061901 31.614537 5.724665
2004-03-08 10:07:25 51°9.839 2°37.566 4.890536 3.061901 31.614537 5.724665
2004-03-08 10:07:29 51°9.843 2°37.562 4.887386 3.075377 31.768434 5.792084
2004-03-08 10:07:35 51°9.847 2°37.556 4.898613 3.07664 31.783703 5.825794
2004-03-08 10:07:40 51°9.852 2°37.553 4.896886 3.07643 31.784639 5.825794
2004-03-08 10:07:45 51°9.856 2°37.55 4.902016 3.058216 31.575794 5.758375
2004-03-08 10:07:49 51°9.859 2°37.548 4.902016 3.062954 31.630714 5.690956
2004-03-08 10:07:55 51°9.864 2°37.546 4.902016 3.062954 31.630714 5.690956
2004-03-08 10:08:00 51°9.868 2°37.545 4.903539 3.06706 31.675936 5.758375
2004-03-08 10:08:05 51°9.872 2°37.545 4.904149 3.079272 31.813776 5.522409
2004-03-08 10:08:10 51°9.876 2°37.545 4.907348 3.059479 31.584404 5.387571
2004-03-08 10:08:15 51°9.879 2°37.546 4.910396 3.069902 31.702568 5.252734
2004-03-08 10:08:20 51°9.882 2°37.548 4.913849 3.071587 31.71847 4.983059
2004-03-08 10:08:25 51°9.885 2°37.55 4.913849 3.071587 31.71847 4.983059
2004-03-08 10:08:30 51°9.887 2°37.553 4.915474 3.073376 31.740578 5.050477
2004-03-08 10:08:35 51°9.89 2°37.556 4.920806 3.073587 31.739646 4.949349
2004-03-08 10:08:39 51°9.891 2°37.559 4.921364 3.074429 31.747596 4.848221
2004-03-08 10:08:45 51°9.892 2°37.564 4.923141 3.080009 31.81049 4.747093
2004-03-08 10:08:49 51°9.893 2°37.567 4.926695 3.083378 31.84814 4.679674
2004-03-08 10:08:55 51°9.894 2°37.572 4.926695 3.083378 31.84814 4.679674
2004-03-08 10:09:00 51°9.894 2°37.577 4.928777 3.079483 31.798629 4.544836
2004-03-08 10:09:05 51°9.893 2°37.582 4.927812 3.08222 31.828219 4.477418
2004-03-08 10:09:09 51°9.893 2°37.586 4.925984 3.072113 31.711981 4.511127
2004-03-08 10:09:15 51°9.892 2°37.593 4.926391 3.083904 31.844949 4.443708
2004-03-08 10:09:20 51°9.891 2°37.598 4.923293 3.083799 31.841238 4.308871
2004-03-08 10:09:25 51°9.889 2°37.604 4.923293 3.083799 31.841238 4.308871
2004-03-08 10:09:29 51°9.888 2°37.609 4.923903 3.084115 31.844008 4.34258
2004-03-08 10:09:35 51°9.887 2°37.617 4.924309 3.081483 31.813117 4.275161
2004-03-08 10:09:40 51°9.885 2°37.623 4.921262 3.085589 31.860005 4.376289
2004-03-08 10:09:45 51°9.884 2°37.63 4.920501 3.085168 31.857706 4.376289
2004-03-08 10:09:49 51°9.883 2°37.636 4.921872 3.079061 31.788809 4.544836
2004-03-08 10:09:55 51°9.881 2°37.644 4.921872 3.079061 31.788809 4.544836
2004-03-08 10:10:00 51°9.879 2°37.652 4.923344 3.079693 31.796857 4.443708
2004-03-08 10:10:05 51°9.878 2°37.659 4.924817 3.085905 31.870308 4.511127
2004-03-08 10:10:10 51°9.876 2°37.666 4.922481 3.08222 31.828219 4.612255
2004-03-08 10:10:15 51°9.874 2°37.674 4.926187 3.084431 31.854309 4.612255
2004-03-08 10:10:20 51°9.872 2°37.681 4.92898 3.087589 31.889552 4.511127
2004-03-08 10:10:25 51°9.871 2°37.689 4.92898 3.087589 31.889552 4.511127
2004-03-08 10:10:30 51°9.869 2°37.698 4.925934 3.07864 31.786505 4.376289
2004-03-08 10:10:35 51°9.868 2°37.706 4.927304 3.068112 31.667149 4.275161
2004-03-08 10:10:40 51°9.867 2°37.714 4.928523 3.078009 31.778457 4.106614
2004-03-08 10:10:45 51°9.866 2°37.722 4.927508 3.076008 31.75395 3.904358
2004-03-08 10:10:49 51°9.865 2°37.728 4.928015 3.08601 31.869837 3.836939
2004-03-08 10:10:55 51°9.863 2°37.737 4.928015 3.08601 31.869837 3.836939
2004-03-08 10:11:00 51°9.861 2°37.745 4.926695 3.083483 31.839303 3.870648
2004-03-08 10:11:05 51°9.86 2°37.751 4.926187 3.079167 31.789176 3.76952
2004-03-08 10:11:09 51°9.859 2°37.757 4.925375 3.078009 31.778457 3.836939
2004-03-08 10:11:15 51°9.857 2°37.763 4.925781 3.086431 31.871298 3.634683
2004-03-08 10:11:20 51°9.855 2°37.767 4.925781 3.085694 31.863718 3.600973
2004-03-08 10:11:25 51°9.854 2°37.77 4.925781 3.085694 31.863718 3.600973
2004-03-08 10:11:29 51°9.853 2°37.772 4.924969 3.087589 31.887039 3.533554
2004-03-08 10:11:35 51°9.851 2°37.774 4.927964 3.085168 31.858542 3.533554
2004-03-08 10:11:40 51°9.85 2°37.774 4.925578 3.085694 31.863718 3.331298
2004-03-08 10:11:45 51°9.849 2°37.773 4.923344 3.078009 31.778457 3.432426
2004-03-08 10:11:50 51°9.847 2°37.773 4.925375 3.085168 31.860216 3.432426
2004-03-08 10:11:55 51°9.846 2°37.772 4.925375 3.085168 31.860216 3.432426
2004-03-08 10:12:00 51°9.845 2°37.771 4.926644 3.083589 31.841342 3.600973
2004-03-08 10:12:05 51°9.843 2°37.77 4.922227 3.08601 31.869 3.702101
2004-03-08 10:12:09 51°9.842 2°37.77 4.919892 3.083694 31.843381 3.634683
2004-03-08 10:12:15 51°9.841 2°37.769 4.918622 3.08222 31.826547 3.567264
2004-03-08 10:12:20 51°9.839 2°37.768 4.917556 3.081904 31.823776 3.533554
2004-03-08 10:12:25 51°9.838 2°37.767 4.917556 3.081904 31.823776 3.533554
2004-03-08 10:12:31 51°9.836 2°37.766 4.918165 3.08422 31.85274 3.600973
2004-03-08 10:12:35 51°9.835 2°37.766 4.916489 3.078114 31.783834 3.702101
2004-03-08 10:12:40 51°9.833 2°37.765 4.914204 3.084852 31.863305 3.533554
2004-03-08 10:12:45 51°9.831 2°37.764 4.910446 3.076535 31.769139 3.76952
2004-03-08 10:12:49 51°9.83 2°37.763 4.909075 3.078535 31.792819 3.702101
2004-03-08 10:12:55 51°9.828 2°37.762 4.909075 3.078535 31.792819 3.702101
2004-03-08 10:12:59 51°9.827 2°37.761 4.909532 3.086642 31.885428 3.904358
2004-03-08 10:13:05 51°9.825 2°37.76 4.909837 3.083273 31.851122 4.241452
2004-03-08 10:13:09 51°9.824 2°37.759 4.908466 3.085694 31.879628 4.544836
2004-03-08 10:13:15 51°9.822 2°37.758 4.909126 3.085905 31.884548 4.376289
2004-03-08 10:13:20 51°9.82 2°37.757 4.90679 3.076114 31.773513 4.477418
2004-03-08 10:13:25 51°9.819 2°37.756 4.90679 3.076114 31.773513 4.477418
2004-03-08 10:13:29 51°9.817 2°37.755 4.90552 3.07464 31.756676 4.578546
2004-03-08 10:13:35 51°9.815 2°37.754 4.909532 3.081483 31.834856 4.578546
2004-03-08 10:13:40 51°9.814 2°37.752 4.905165 3.072534 31.734295 4.679674
2004-03-08 10:13:45 51°9.812 2°37.751 4.90552 3.087063 31.900299 4.747093
2004-03-08 10:13:49 51°9.811 2°37.75 4.907806 3.075271 31.766397 4.747093
2004-03-08 10:13:55 51°9.809 2°37.749 4.907806 3.075271 31.766397 4.747093
2004-03-08 10:14:00 51°9.807 2°37.748 4.910446 3.078641 31.804886 4.814512
2004-03-08 10:14:05 51°9.805 2°37.747 4.906688 3.083484 31.861063 4.91564
2004-03-08 10:14:10 51°9.804 2°37.746 4.906942 3.087274 31.904383 5.117896
2004-03-08 10:14:15 51°9.802 2°37.744 4.904961 3.084747 31.875502 5.050477
2004-03-08 10:14:20 51°9.801 2°37.743 4.905063 3.078325 31.802113 4.713383
2004-03-08 10:14:25 51°9.799 2°37.742 4.905063 3.078325 31.802113 4.713383
2004-03-08 10:14:29 51°9.798 2°37.741 4.90618 3.083273 31.857819 4.780802
2004-03-08 10:14:35 51°9.795 2°37.74 4.904708 3.084852 31.875867 4.780802
2004-03-08 10:14:40 51°9.794 2°37.739 4.903336 3.083484 31.860226 4.88193
2004-03-08 10:14:45 51°9.792 2°37.738 4.902625 3.084115 31.869958 4.949349
2004-03-08 10:14:49 51°9.791 2°37.737 4.904301 3.085695 31.888847 4.88193
2004-03-08 10:14:55 51°9.789 2°37.737 4.904301 3.085695 31.888847 4.88193
2004-03-08 10:15:00 51°9.787 2°37.736 4.901609 3.077272 31.791756 4.88193
2004-03-08 10:15:05 51°9.785 2°37.735 4.903184 3.082536 31.853584 5.050477
2004-03-08 10:15:10 51°9.784 2°37.734 4.901152 3.068323 31.692031 4.88193
2004-03-08 10:15:15 51°9.782 2°37.733 4.902574 3.085379 31.886913 4.983059
2004-03-08 10:15:20 51°9.78 2°37.733 4.899984 3.060111 31.597428 5.016768
2004-03-08 10:15:25 51°9.779 2°37.732 4.899984 3.060111 31.597428 5.016768
2004-03-08 10:15:30 51°9.777 2°37.732 4.900543 3.069271 31.705354 5.050477
2004-03-08 10:15:35 51°9.775 2°37.731 4.901457 3.084642 31.881841 5.050477
2004-03-08 10:15:39 51°9.774 2°37.731 4.901508 3.079483 31.822874 5.016768
2004-03-08 10:15:45 51°9.771 2°37.73 4.901051 3.084431 31.878596 5.117896
2004-03-08 10:15:51 51°9.769 2°37.73 4.900797 3.069797 31.713035 5.219024
2004-03-08 10:15:55 51°9.768 2°37.73 4.900797 3.069797 31.713035 5.219024
2004-03-08 10:16:00 51°9.766 2°37.73 4.899375 3.078851 31.815655 5.050477
2004-03-08 10:16:05 51°9.765 2°37.729 4.899425 3.078851 31.813982 5.016768
2004-03-08 10:16:10 51°9.763 2°37.729 4.900289 3.079167 31.819264 4.949349
2004-03-08 10:16:15 51°9.761 2°37.729 4.90034 3.076324 31.787615 5.084187
2004-03-08 10:16:20 51°9.759 2°37.729 4.897901 3.078009 31.806865 5.016768
2004-03-08 10:16:25 51°9.757 2°37.729 4.897901 3.078009 31.806865 5.016768
2004-03-08 10:16:30 51°9.756 2°37.729 4.897851 3.083273 31.868709 5.050477
2004-03-08 10:16:35 51°9.754 2°37.729 4.89719 3.084115 31.876662 5.050477
2004-03-08 10:16:39 51°9.752 2°37.729 4.897648 3.083063 31.866302 5.185315
2004-03-08 10:16:45 51°9.75 2°37.73 4.89653 3.08222 31.854998 5.252734
2004-03-08 10:16:50 51°9.748 2°37.731 4.896886 3.079588 31.827425 5.084187
2004-03-08 10:16:55 51°9.746 2°37.731 4.896886 3.079588 31.827425 5.084187
2004-03-08 10:16:59 51°9.745 2°37.731 4.89592 3.069481 31.711928 5.185315
2004-03-08 10:17:05 51°9.743 2°37.732 4.896225 3.075903 31.78531 4.88193
2004-03-08 10:17:10 51°9.741 2°37.733 4.894041 3.075903 31.786981 5.117896
2004-03-08 10:17:15 51°9.739 2°37.733 4.896124 3.074219 31.76773 5.252734
2004-03-08 10:17:19 51°9.737 2°37.734 4.896987 3.083589 31.875673 5.353862
2004-03-08 10:17:25 51°9.735 2°37.735 4.896987 3.083589 31.875673 5.353862
2004-03-08 10:17:30 51°9.733 2°37.736 4.895311 3.078956 31.821878 5.117896
2004-03-08 10:17:35 51°9.731 2°37.737 4.89719 3.080536 31.841605 5.387571
2004-03-08 10:17:40 51°9.729 2°37.737 4.892974 3.082641 31.864839 5.219024
2004-03-08 10:17:45 51°9.728 2°37.739 4.894143 3.08222 31.860025 5.117896
2004-03-08 10:17:49 51°9.726 2°37.739 4.894143 3.082326 31.862066 5.387571
2004-03-08 10:17:55 51°9.724 2°37.74 4.894143 3.082326 31.862066 5.387571
2004-03-08 10:18:00 51°9.722 2°37.741 4.89592 3.079588 31.830773 5.252734
2004-03-08 10:18:05 51°9.72 2°37.742 4.896022 3.081483 31.853275 5.4887
2004-03-08 10:18:09 51°9.719 2°37.743 4.894041 3.083168 31.874211 5.387571
2004-03-08 10:18:15 51°9.717 2°37.745 4.895413 3.079693 31.832813 5.353862
2004-03-08 10:18:20 51°9.715 2°37.745 4.895463 3.080746 31.845687 5.353862
2004-03-08 10:18:25 51°9.713 2°37.746 4.895463 3.080746 31.845687 5.353862
2004-03-08 10:18:30 51°9.711 2°37.748 4.898867 3.079588 31.832447 5.387571
2004-03-08 10:18:35 51°9.709 2°37.749 4.896682 3.080325 31.840872 5.4887
2004-03-08 10:18:40 51°9.707 2°37.75 4.896581 3.081483 31.854113 5.421281
2004-03-08 10:18:45 51°9.705 2°37.751 4.897343 3.082115 31.860497 5.45499
2004-03-08 10:18:51 51°9.703 2°37.752 4.896987 3.081589 31.853641 5.522409
2004-03-08 10:18:55 51°9.702 2°37.753 4.896987 3.081589 31.853641 5.522409
2004-03-08 10:18:59 51°9.7 2°37.755 4.90166 3.080115 31.83679 5.589828
2004-03-08 10:19:05 51°9.698 2°37.756 4.899222 3.073587 31.762182 5.252734
2004-03-08 10:19:09 51°9.697 2°37.757 4.904149 3.081167 31.848826 5.185315
2004-03-08 10:19:15 51°9.695 2°37.758 4.905317 3.072008 31.743301 5.320153
2004-03-08 10:19:19 51°9.694 2°37.76 4.904504 3.073903 31.764956 4.88193
2004-03-08 10:19:25 51°9.692 2°37.761 4.904504 3.073903 31.764956 4.88193
2004-03-08 10:19:29 51°9.69 2°37.762 4.904555 3.080115 31.834279 5.252734
2004-03-08 10:19:35 51°9.689 2°37.763 4.9042 3.07464 31.770872 5.050477
2004-03-08 10:19:39 51°9.687 2°37.764 4.904961 3.080746 31.836477 5.219024
2004-03-08 10:19:45 51°9.686 2°37.766 4.905825 3.08022 31.83046 5.151606
2004-03-08 10:19:49 51°9.684 2°37.767 4.904149 3.077904 31.807335 4.983059
2004-03-08 10:19:55 51°9.683 2°37.768 4.904149 3.077904 31.807335 4.983059
2004-03-08 10:19:59 51°9.682 2°37.769 4.9042 3.070218 31.717845 5.016768
2004-03-08 10:20:05 51°9.68 2°37.77 4.903387 3.064217 31.648468 5.050477
2004-03-08 10:20:09 51°9.679 2°37.771 4.902473 3.072218 31.740699 5.016768
2004-03-08 10:20:15 51°9.678 2°37.773 4.902828 3.077798 31.802786 5.185315
2004-03-08 10:20:20 51°9.676 2°37.774 4.902219 3.077061 31.796037 4.983059
2004-03-08 10:20:25 51°9.675 2°37.775 4.902219 3.077061 31.796037 4.983059
2004-03-08 10:20:29 51°9.674 2°37.776 4.900136 3.077798 31.804459 5.050477
2004-03-08 10:20:35 51°9.673 2°37.777 4.900136 3.072429 31.741435 5.286443
2004-03-08 10:20:40 51°9.672 2°37.778 4.901457 3.072745 31.746713 5.151606
2004-03-08 10:20:45 51°9.671 2°37.779 4.901101 3.075377 31.779294 5.151606
2004-03-08 10:20:49 51°9.67 2°37.78 4.900949 3.076746 31.794099 5.151606
2004-03-08 10:20:55 51°9.669 2°37.781 4.900949 3.076746 31.794099 5.151606
2004-03-08 10:21:00 51°9.668 2°37.782 4.89973 3.075377 31.778458 5.252734
2004-03-08 10:21:05 51°9.667 2°37.783 4.901508 3.075482 31.780497 5.084187
2004-03-08 10:21:09 51°9.667 2°37.784 4.901305 3.076009 31.785677 5.353862
2004-03-08 10:21:15 51°9.666 2°37.785 4.901355 3.070639 31.725159 5.016768
2004-03-08 10:21:20 51°9.665 2°37.786 4.902473 3.07285 31.751255 5.387571
2004-03-08 10:21:25 51°9.664 2°37.787 4.902473 3.07285 31.751255 5.387571
2004-03-08 10:21:29 51°9.664 2°37.788 4.902676 3.073166 31.754029 5.252734
2004-03-08 10:21:35 51°9.663 2°37.789 4.902016 3.062322 31.630153 5.286443
2004-03-08 10:21:40 51°9.663 2°37.79 4.902828 3.068112 31.697126 5.151606
2004-03-08 10:21:45 51°9.662 2°37.791 4.905622 3.073061 31.751991 5.286443
2004-03-08 10:21:49 51°9.662 2°37.791 4.907145 3.071166 31.732008 5.252734
2004-03-08 10:21:55 51°9.661 2°37.792 4.907145 3.071166 31.732008 5.252734
2004-03-08 10:22:00 51°9.66 2°37.793 4.90811 3.072745 31.750052 5.117896
2004-03-08 10:22:05 51°9.66 2°37.794 4.908466 3.073587 31.758841 5.151606
2004-03-08 10:22:11 51°9.66 2°37.795 4.909075 3.071692 31.736353 4.949349
2004-03-08 10:22:15 51°9.66 2°37.796 4.909431 3.071797 31.735887 5.185315
2004-03-08 10:22:20 51°9.659 2°37.797 4.907806 3.066954 31.679731 5.117896
2004-03-08 10:22:25 51°9.659 2°37.798 4.907806 3.066954 31.679731 5.117896
2004-03-08 10:22:29 51°9.659 2°37.799 4.905622 3.070534 31.718952 4.983059
2004-03-08 10:22:35 51°9.659 2°37.8 4.906282 3.072639 31.742172 5.117896
2004-03-08 10:22:40 51°9.659 2°37.801 4.90552 3.071903 31.733753 5.252734
2004-03-08 10:22:45 51°9.66 2°37.802 4.903996 3.07264 31.743006 5.117896
2004-03-08 10:22:50 51°9.66 2°37.802 4.905419 3.072429 31.741435 5.050477
2004-03-08 10:22:55 51°9.66 2°37.803 4.905419 3.072429 31.741435 5.050477
2004-03-08 10:23:00 51°9.661 2°37.804 4.907501 3.070955 31.726265 5.117896
2004-03-08 10:23:05 51°9.661 2°37.805 4.906028 3.070429 31.719417 4.91564
2004-03-08 10:23:09 51°9.662 2°37.806 4.906434 3.072218 31.73903 5.084187
2004-03-08 10:23:15 51°9.662 2°37.806 4.909075 3.067375 31.683708 5.151606
2004-03-08 10:23:20 51°9.663 2°37.807 4.907145 3.072218 31.73903 5.050477
2004-03-08 10:23:25 51°9.663 2°37.807 4.907145 3.072218 31.73903 5.050477
2004-03-08 10:23:29 51°9.664 2°37.808 4.90872 3.071903 31.733753 4.814512
2004-03-08 10:23:35 51°9.665 2°37.808 4.909532 3.071692 31.732181 4.949349
2004-03-08 10:23:40 51°9.666 2°37.808 4.9042 3.071481 31.729776 5.151606
2004-03-08 10:23:45 51°9.666 2°37.809 4.904911 3.071692 31.731347 4.88193
2004-03-08 10:23:49 51°9.667 2°37.809 4.903793 3.071481 31.728942 4.814512
2004-03-08 10:23:55 51°9.668 2°37.809 4.903793 3.071481 31.728942 4.814512
2004-03-08 10:24:00 51°9.669 2°37.808 4.904149 3.071376 31.728573 5.016768
2004-03-08 10:24:05 51°9.67 2°37.808 4.905266 3.071797 31.733384 5.219024
2004-03-08 10:24:09 51°9.671 2°37.808 4.904555 3.069376 31.705723 5.084187
2004-03-08 10:24:15 51°9.673 2°37.807 4.902016 3.068744 31.701841 4.983059
2004-03-08 10:24:19 51°9.674 2°37.806 4.902016 3.071481 31.732279 5.016768
2004-03-08 10:24:25 51°9.675 2°37.805 4.902016 3.071481 31.732279 5.016768